Vuilleumier, Laurent (2010): Radiosonde measurements from station Payerne (2009-05) [dataset]. Swiss Meteorological Agency, Payerne, PANGAEA, https://doi.org/10.1594/PANGAEA.735306
Always quote citation above when using data! You can download the citation in several formats below.
Published: 2010-03-19 • DOI registered: 2010-04-16
Other version:
Vuilleumier, Laurent (2010): BSRN Station-to-archive file for station Payerne (2009-05) [dataset]. ftp://ftp.bsrn.awi.de/pay/pay0509.dat.gz
Project(s):
Coverage:
Latitude: 46.812300 * Longitude: 6.942200
Date/Time Start: 2009-05-01T00:00:00 * Date/Time End: 2009-05-31T12:00:00
Minimum ALTITUDE: 491 m * Maximum ALTITUDE: 35212 m
Event(s):
PAY (Payerne) * Latitude: 46.812300 * Longitude: 6.942200 * Date/Time: 1992-09-01T00:00:00 * Elevation: 491.0 m * Location: Switzerland * Method/Device: Monitoring station (MONS) * Comment: BSRN station no: 21; Surface type: cultivated; Topography type: hilly, rural; Horizon: doi:10.1594/PANGAEA.947035; Station scientist: Laurent Vuilleumier (laurent.vuilleumier@meteoswiss.ch)
Parameter(s):
| # | Name | Short Name | Unit | Principal Investigator | Method/Device | Comment |
|---|---|---|---|---|---|---|
| 1 | DATE/TIME | Date/Time | Geocode | |||
| 2 | ALTITUDE | Altitude | m | Geocode | ||
| 3 | Pressure, at given altitude | PPPP | hPa | Vuilleumier, Laurent | Radiosonde, METEOLABOR AG, SRSCH | |
| 4 | Temperature, air | TTT | °C | Vuilleumier, Laurent | Radiosonde, METEOLABOR AG, SRSCH | |
| 5 | Dew/frost point | TdTdTd | °C | Vuilleumier, Laurent | Radiosonde, METEOLABOR AG, SRSCH | |
| 6 | Wind direction | dd | deg | Vuilleumier, Laurent | Radiosonde, METEOLABOR AG, SRSCH | |
| 7 | Wind speed | ff | m/s | Vuilleumier, Laurent | Radiosonde, METEOLABOR AG, SRSCH | |
| 8 | Ozone, partial pressure | pO3 | mPa | Vuilleumier, Laurent | Radiosonde, METEOLABOR AG, SRSCH |
License:
Size:
309836 data points
Data
| 1 Date/Time | 2 Altitude [m] | 3 PPPP [hPa] | 4 TTT [°C] | 5 TdTdTd [°C] | 6 dd [deg] | 7 ff [m/s] | 8 pO3 [mPa] |
|---|---|---|---|---|---|---|---|
| 2009-05-01T00:00 | 491 | 961 | 8.1 | 3.8 | 53 | 1 | |
| 2009-05-01T00:00 | 505 | 959 | 8.6 | 3.7 | |||
| 2009-05-01T00:00 | 543 | 955 | 8.5 | 3.1 | |||
| 2009-05-01T00:00 | 559 | 953 | 8.6 | 3.1 | |||
| 2009-05-01T00:00 | 565 | 952 | 8.6 | 3.2 | |||
| 2009-05-01T00:00 | 586 | 950 | 8.6 | 3.2 | |||
| 2009-05-01T00:00 | 596 | 948 | 8.9 | 3.5 | |||
| 2009-05-01T00:00 | 601 | 948 | 8.9 | 3.5 | |||
| 2009-05-01T00:00 | 619 | 946 | 8.8 | 3.4 | 39 | 5 | |
| 2009-05-01T00:00 | 623 | 945 | 8.8 | 3.4 | |||
| 2009-05-01T00:00 | 630 | 945 | 8.8 | 3.3 | |||
| 2009-05-01T00:00 | 633 | 944 | 8.7 | 3.3 | |||
| 2009-05-01T00:00 | 653 | 942 | 8.7 | 3.2 | |||
| 2009-05-01T00:00 | 658 | 941 | 8.7 | 3.2 | 37 | 7 | |
| 2009-05-01T00:00 | 663 | 941 | 8.8 | 3.2 | |||
| 2009-05-01T00:00 | 668 | 940 | 8.8 | 3.2 | |||
| 2009-05-01T00:00 | 690 | 938 | 8.8 | 3.2 | |||
| 2009-05-01T00:00 | 698 | 937 | 8.9 | 3.2 | |||
| 2009-05-01T00:00 | 701 | 937 | 9.0 | 3.3 | 40 | 7 | |
| 2009-05-01T00:00 | 720 | 934 | 9.0 | 3.1 | |||
| 2009-05-01T00:00 | 728 | 933 | 8.9 | 3.0 | |||
| 2009-05-01T00:00 | 732 | 933 | 8.9 | 2.9 | |||
| 2009-05-01T00:00 | 741 | 932 | 8.9 | 2.8 | 45 | 6 | |
| 2009-05-01T00:00 | 753 | 931 | 8.8 | 2.6 | |||
| 2009-05-01T00:00 | 761 | 930 | 8.8 | 2.4 | |||
| 2009-05-01T00:00 | 765 | 929 | 8.7 | 2.3 | |||
| 2009-05-01T00:00 | 781 | 928 | 8.6 | 2.0 | 51 | 7 | |
| 2009-05-01T00:00 | 784 | 927 | 8.5 | 2.0 | |||
| 2009-05-01T00:00 | 792 | 926 | 8.5 | 1.9 | |||
| 2009-05-01T00:00 | 795 | 926 | 8.5 | 1.9 | |||
| 2009-05-01T00:00 | 804 | 925 | 8.4 | 1.8 | |||
| 2009-05-01T00:00 | 817 | 924 | 8.4 | 1.7 | |||
| 2009-05-01T00:00 | 822 | 923 | 8.4 | 1.6 | 56 | 7 | |
| 2009-05-01T00:00 | 827 | 922 | 8.4 | 1.6 | |||
| 2009-05-01T00:00 | 832 | 922 | 8.4 | 1.6 | |||
| 2009-05-01T00:00 | 857 | 919 | 8.1 | 1.3 | |||
| 2009-05-01T00:00 | 866 | 918 | 8.1 | 1.2 | |||
| 2009-05-01T00:00 | 871 | 918 | 8.0 | 1.2 | 61 | 7 | |
| 2009-05-01T00:00 | 892 | 915 | 7.9 | 1.0 | |||
| 2009-05-01T00:00 | 911 | 913 | 7.8 | 1.0 | |||
| 2009-05-01T00:00 | 917 | 912 | 7.8 | 1.0 | |||
| 2009-05-01T00:00 | 926 | 911 | 7.7 | 0.9 | 64 | 7 | |
| 2009-05-01T00:00 | 935 | 910 | 7.6 | 0.8 | |||
| 2009-05-01T00:00 | 944 | 909 | 7.6 | 0.7 | |||
| 2009-05-01T00:00 | 947 | 909 | 7.6 | 0.7 | |||
| 2009-05-01T00:00 | 963 | 907 | 7.3 | 0.5 | 65 | 8 | |
| 2009-05-01T00:00 | 979 | 906 | 7.3 | 0.4 | |||
| 2009-05-01T00:00 | 984 | 905 | 7.2 | 0.4 | |||
| 2009-05-01T00:00 | 999 | 903 | 7.2 | 0.1 | |||
| 2009-05-01T00:00 | 1004 | 903 | 7.2 | 0.0 | 68 | 8 | |
| 2009-05-01T00:00 | 1006 | 903 | 7.2 | -0.1 | |||
| 2009-05-01T00:00 | 1008 | 902 | 7.2 | -0.1 | |||
| 2009-05-01T00:00 | 1023 | 901 | 6.9 | -0.5 | |||
| 2009-05-01T00:00 | 1029 | 900 | 6.9 | -0.6 | |||
| 2009-05-01T00:00 | 1040 | 899 | 6.9 | -0.6 | |||
| 2009-05-01T00:00 | 1046 | 898 | 6.9 | -0.7 | 68 | 8 | |
| 2009-05-01T00:00 | 1064 | 896 | 6.7 | -0.9 | |||
| 2009-05-01T00:00 | 1075 | 895 | 6.7 | -1.0 | |||
| 2009-05-01T00:00 | 1079 | 895 | 6.7 | -1.0 | |||
| 2009-05-01T00:00 | 1087 | 894 | 6.6 | -1.1 | 69 | 8 | |
| 2009-05-01T00:00 | 1095 | 893 | 6.4 | -1.3 | |||
| 2009-05-01T00:00 | 1106 | 892 | 6.4 | -1.4 | |||
| 2009-05-01T00:00 | 1110 | 891 | 6.3 | -1.4 | |||
| 2009-05-01T00:00 | 1128 | 889 | 6.3 | -1.5 | 70 | 8 | |
| 2009-05-01T00:00 | 1143 | 888 | 6.2 | -1.7 | |||
| 2009-05-01T00:00 | 1148 | 887 | 6.2 | -1.7 | |||
| 2009-05-01T00:00 | 1170 | 885 | 6.0 | -2.0 | |||
| 2009-05-01T00:00 | 1174 | 884 | 6.0 | -2.0 | 71 | 8 | |
| 2009-05-01T00:00 | 1178 | 884 | 6.0 | -2.1 | |||
| 2009-05-01T00:00 | 1182 | 883 | 6.0 | -2.1 | |||
| 2009-05-01T00:00 | 1206 | 881 | 5.9 | -2.4 | |||
| 2009-05-01T00:00 | 1217 | 880 | 5.8 | -2.5 | |||
| 2009-05-01T00:00 | 1223 | 879 | 5.8 | -2.6 | 70 | 8 | |
| 2009-05-01T00:00 | 1248 | 876 | 5.5 | -3.0 | |||
| 2009-05-01T00:00 | 1257 | 875 | 5.5 | -3.0 | |||
| 2009-05-01T00:00 | 1261 | 875 | 5.5 | -3.0 | |||
| 2009-05-01T00:00 | 1271 | 874 | 5.4 | -3.1 | 69 | 8 | |
| 2009-05-01T00:00 | 1286 | 872 | 5.3 | -3.2 | |||
| 2009-05-01T00:00 | 1298 | 871 | 5.3 | -3.2 | |||
| 2009-05-01T00:00 | 1304 | 870 | 5.2 | -3.2 | |||
| 2009-05-01T00:00 | 1325 | 868 | 5.1 | -3.2 | 69 | 9 | |
| 2009-05-01T00:00 | 1330 | 868 | 5.0 | -3.3 | |||
| 2009-05-01T00:00 | 1337 | 867 | 5.0 | -3.2 | |||
| 2009-05-01T00:00 | 1341 | 866 | 5.0 | -3.2 | |||
| 2009-05-01T00:00 | 1360 | 864 | 4.8 | -3.1 | |||
| 2009-05-01T00:00 | 1364 | 864 | 4.8 | -3.1 | 68 | 9 | |
| 2009-05-01T00:00 | 1368 | 864 | 4.8 | -3.1 | |||
| 2009-05-01T00:00 | 1372 | 863 | 4.8 | -3.1 | |||
| 2009-05-01T00:00 | 1391 | 861 | 4.6 | -3.2 | |||
| 2009-05-01T00:00 | 1398 | 860 | 4.5 | -3.2 | |||
| 2009-05-01T00:00 | 1402 | 860 | 4.5 | -3.3 | 67 | 10 | |
| 2009-05-01T00:00 | 1421 | 858 | 4.3 | -3.4 | |||
| 2009-05-01T00:00 | 1430 | 857 | 4.2 | -3.4 | |||
| 2009-05-01T00:00 | 1434 | 857 | 4.2 | -3.3 | |||
| 2009-05-01T00:00 | 1443 | 856 | 4.1 | -3.4 | 66 | 10 | |
| 2009-05-01T00:00 | 1456 | 854 | 4.0 | -3.5 | |||
| 2009-05-01T00:00 | 1465 | 853 | 3.9 | -3.5 | |||
| 2009-05-01T00:00 | 1469 | 853 | 3.9 | -3.5 | |||
| 2009-05-01T00:00 | 1490 | 851 | 3.7 | -3.6 | 66 | 10 | |
| 2009-05-01T00:00 | 1495 | 850 | 3.6 | -3.6 | |||
| 2009-05-01T00:00 | 1496 | 850 | 3.6 | -3.6 | |||
| 2009-05-01T00:00 | 1514 | 848 | 3.6 | -3.6 | |||
| 2009-05-01T00:00 | 1520 | 847 | 3.5 | -3.6 | |||
| 2009-05-01T00:00 | 1539 | 846 | 3.3 | -3.7 | |||
| 2009-05-01T00:00 | 1541 | 845 | 3.2 | -3.8 | 65 | 10 | |
| 2009-05-01T00:00 | 1547 | 845 | 3.2 | -3.8 | |||
| 2009-05-01T00:00 | 1549 | 844 | 3.2 | -3.8 | |||
| 2009-05-01T00:00 | 1564 | 843 | 2.9 | -3.9 | |||
| 2009-05-01T00:00 | 1577 | 842 | 2.9 | -3.9 | 64 | 10 | |
| 2009-05-01T00:00 | 1582 | 841 | 2.8 | -3.9 | |||
| 2009-05-01T00:00 | 1605 | 839 | 2.5 | -3.9 | |||
| 2009-05-01T00:00 | 1614 | 838 | 2.5 | -3.9 | |||
| 2009-05-01T00:00 | 1619 | 837 | 2.4 | -3.8 | |||
| 2009-05-01T00:00 | 1623 | 837 | 2.4 | -3.8 | 63 | 10 | |
| 2009-05-01T00:00 | 1640 | 835 | 2.2 | -3.7 | |||
| 2009-05-01T00:00 | 1647 | 834 | 2.1 | -3.6 | |||
| 2009-05-01T00:00 | 1651 | 834 | 2.1 | -3.6 | |||
| 2009-05-01T00:00 | 1664 | 833 | 2.0 | -3.5 | 61 | 9 | |
| 2009-05-01T00:00 | 1672 | 832 | 1.9 | -3.5 | |||
| 2009-05-01T00:00 | 1683 | 831 | 1.8 | -3.5 | |||
| 2009-05-01T00:00 | 1689 | 830 | 1.8 | -3.4 | |||
| 2009-05-01T00:00 | 1712 | 828 | 1.7 | -3.4 | 60 | 10 | |
| 2009-05-01T00:00 | 1719 | 827 | 1.7 | -3.3 | |||
| 2009-05-01T00:00 | 1723 | 827 | 1.7 | -3.3 | |||
| 2009-05-01T00:00 | 1741 | 825 | 1.6 | -3.5 | |||
| 2009-05-01T00:00 | 1748 | 824 | 1.6 | -3.6 | 59 | 10 | |
| 2009-05-01T00:00 | 1751 | 824 | 1.6 | -3.5 | |||
| 2009-05-01T00:00 | 1777 | 821 | 1.4 | -3.9 | |||
| 2009-05-01T00:00 | 1793 | 819 | 1.3 | -4.0 | |||
| 2009-05-01T00:00 | 1801 | 819 | 1.3 | -4.0 | |||
| 2009-05-01T00:00 | 1807 | 818 | 1.2 | -4.1 | 59 | 10 | |
| 2009-05-01T00:00 | 1832 | 815 | 1.0 | -4.3 | |||
| 2009-05-01T00:00 | 1840 | 815 | 0.9 | -4.3 | |||
| 2009-05-01T00:00 | 1844 | 814 | 0.9 | -4.3 | |||
| 2009-05-01T00:00 | 1855 | 813 | 0.8 | -4.3 | 59 | 11 | |
| 2009-05-01T00:00 | 1862 | 812 | 0.7 | -4.4 | |||
| 2009-05-01T00:00 | 1868 | 812 | 0.8 | -4.3 | |||
| 2009-05-01T00:00 | 1871 | 812 | 0.7 | -4.3 | |||
| 2009-05-01T00:00 | 1890 | 810 | 0.6 | -4.4 | 59 | 11 | |
| 2009-05-01T00:00 | 1902 | 808 | 0.6 | -4.4 | |||
| 2009-05-01T00:00 | 1908 | 808 | 0.6 | -4.4 | |||
| 2009-05-01T00:00 | 1930 | 806 | 0.4 | -4.6 | |||
| 2009-05-01T00:00 | 1934 | 805 | 0.3 | -4.7 | 60 | 11 | |
| 2009-05-01T00:00 | 1937 | 805 | 0.3 | -4.6 | |||
| 2009-05-01T00:00 | 1957 | 803 | 0.2 | -4.8 | |||
| 2009-05-01T00:00 | 1971 | 801 | 0.1 | -4.9 | |||
| 2009-05-01T00:00 | 1977 | 801 | 0.1 | -4.9 | |||
| 2009-05-01T00:00 | 1982 | 800 | 0.1 | -5.0 | 60 | 11 | |
| 2009-05-01T00:00 | 1985 | 800 | 0.1 | -5.1 | |||
| 2009-05-01T00:00 | 2003 | 798 | -0.1 | -5.3 | |||
| 2009-05-01T00:00 | 2010 | 798 | -0.1 | -5.4 | |||
| 2009-05-01T00:00 | 2013 | 797 | -0.1 | -5.5 | |||
| 2009-05-01T00:00 | 2025 | 796 | -0.2 | -5.7 | 60 | 10 | |
| 2009-05-01T00:00 | 2032 | 795 | -0.3 | -5.8 | |||
| 2009-05-01T00:00 | 2041 | 794 | -0.4 | -5.8 | |||
| 2009-05-01T00:00 | 2046 | 794 | -0.4 | -5.9 | |||
| 2009-05-01T00:00 | 2068 | 792 | -0.7 | -6.2 | 60 | 10 | |
| 2009-05-01T00:00 | 2076 | 791 | -0.7 | -6.2 | |||
| 2009-05-01T00:00 | 2080 | 791 | -0.8 | -6.2 | |||
| 2009-05-01T00:00 | 2103 | 788 | -1.0 | -6.4 | |||
| 2009-05-01T00:00 | 2114 | 787 | -1.0 | -6.4 | 61 | 9 | |
| 2009-05-01T00:00 | 2119 | 787 | -1.0 | -6.4 | |||
| 2009-05-01T00:00 | 2124 | 786 | -1.0 | -6.4 | |||
| 2009-05-01T00:00 | 2146 | 784 | -1.3 | -6.7 | |||
| 2009-05-01T00:00 | 2161 | 783 | -1.4 | -6.7 | |||
| 2009-05-01T00:00 | 2166 | 782 | -1.4 | -6.7 | 63 | 8 | |
| 2009-05-01T00:00 | 2179 | 781 | -1.6 | -6.9 | |||
| 2009-05-01T00:00 | 2183 | 780 | -1.7 | -6.8 | |||
| 2009-05-01T00:00 | 2185 | 780 | -1.7 | -6.9 | |||
| 2009-05-01T00:00 | 2189 | 780 | -1.8 | -6.9 | 63 | 8 | |
| 2009-05-01T00:00 | 2195 | 779 | -2.0 | -7.0 | |||
| 2009-05-01T00:00 | 2202 | 779 | -2.0 | -7.0 | |||
| 2009-05-01T00:00 | 2205 | 778 | -2.1 | -7.0 | |||
| 2009-05-01T00:00 | 2225 | 776 | -2.3 | -7.1 | 63 | 8 | |
| 2009-05-01T00:00 | 2230 | 776 | -2.3 | -7.2 | |||
| 2009-05-01T00:00 | 2245 | 774 | -2.4 | -7.1 | |||
| 2009-05-01T00:00 | 2252 | 774 | -2.4 | -7.1 | |||
| 2009-05-01T00:00 | 2281 | 771 | -2.7 | -7.2 | |||
| 2009-05-01T00:00 | 2285 | 770 | -2.7 | -7.2 | 61 | 8 | |
| 2009-05-01T00:00 | 2288 | 770 | -2.7 | -7.2 | |||
| 2009-05-01T00:00 | 2292 | 770 | -2.8 | -7.2 | |||
| 2009-05-01T00:00 | 2311 | 768 | -3.0 | -7.2 | |||
| 2009-05-01T00:00 | 2319 | 767 | -3.1 | -7.2 | |||
| 2009-05-01T00:00 | 2323 | 767 | -3.1 | -7.2 | 59 | 8 | |
| 2009-05-01T00:00 | 2350 | 764 | -3.3 | -7.2 | |||
| 2009-05-01T00:00 | 2364 | 763 | -3.4 | -7.2 | |||
| 2009-05-01T00:00 | 2372 | 762 | -3.5 | -7.2 | |||
| 2009-05-01T00:00 | 2382 | 761 | -3.6 | -7.2 | 57 | 8 | |
| 2009-05-01T00:00 | 2398 | 760 | -3.7 | -7.2 | |||
| 2009-05-01T00:00 | 2402 | 759 | -3.8 | -7.2 | |||
| 2009-05-01T00:00 | 2405 | 759 | -3.9 | -7.2 | |||
| 2009-05-01T00:00 | 2421 | 757 | -4.1 | -7.2 | 57 | 8 | |
| 2009-05-01T00:00 | 2425 | 757 | -4.1 | -7.3 | |||
| 2009-05-01T00:00 | 2438 | 756 | -4.2 | -7.2 | |||
| 2009-05-01T00:00 | 2444 | 755 | -4.2 | -7.2 | |||
| 2009-05-01T00:00 | 2472 | 752 | -4.4 | -7.3 | |||
| 2009-05-01T00:00 | 2476 | 752 | -4.4 | -7.3 | 57 | 8 | |
| 2009-05-01T00:00 | 2484 | 751 | -4.5 | -7.3 | |||
| 2009-05-01T00:00 | 2488 | 751 | -4.5 | -7.3 | |||
| 2009-05-01T00:00 | 2509 | 749 | -4.8 | -7.5 | |||
| 2009-05-01T00:00 | 2529 | 747 | -4.9 | -7.4 | 59 | 7 | |
| 2009-05-01T00:00 | 2536 | 746 | -4.9 | -7.4 | |||
| 2009-05-01T00:00 | 2555 | 745 | -5.2 | -7.6 | |||
| 2009-05-01T00:00 | 2563 | 744 | -5.3 | -7.6 | |||
| 2009-05-01T00:00 | 2566 | 744 | -5.3 | -7.6 | |||
| 2009-05-01T00:00 | 2570 | 743 | -5.3 | -7.6 | 62 | 7 | |
| 2009-05-01T00:00 | 2585 | 742 | -5.5 | -7.7 | |||
| 2009-05-01T00:00 | 2597 | 741 | -5.5 | -7.6 | |||
| 2009-05-01T00:00 | 2602 | 740 | -5.5 | -7.6 | |||
| 2009-05-01T00:00 | 2616 | 739 | -5.7 | -7.8 | 63 | 6 | |
| 2009-05-01T00:00 | 2625 | 738 | -5.8 | -7.9 | |||
| 2009-05-01T00:00 | 2631 | 737 | -5.8 | -7.9 | |||
| 2009-05-01T00:00 | 2633 | 737 | -5.8 | -7.9 | |||
| 2009-05-01T00:00 | 2655 | 735 | -6.1 | -8.2 | 63 | 6 | |
| 2009-05-01T00:00 | 2669 | 734 | -6.1 | -8.2 | |||
| 2009-05-01T00:00 | 2675 | 733 | -6.1 | -8.2 | |||
| 2009-05-01T00:00 | 2704 | 731 | -6.1 | -8.2 | |||
| 2009-05-01T00:00 | 2712 | 730 | -4.8 | -7.1 | 61 | 5 | |
| 2009-05-01T00:00 | 2716 | 729 | -4.1 | -6.4 | |||
| 2009-05-01T00:00 | 2735 | 728 | -2.6 | -5.6 | |||
| 2009-05-01T00:00 | 2740 | 727 | -1.9 | -5.3 | |||
| 2009-05-01T00:00 | 2743 | 727 | -1.9 | -5.5 | |||
| 2009-05-01T00:00 | 2748 | 727 | -1.9 | -5.7 | 58 | 5 | |
| 2009-05-01T00:00 | 2766 | 725 | -1.8 | -6.5 | |||
| 2009-05-01T00:00 | 2780 | 724 | -1.8 | -6.9 | |||
| 2009-05-01T00:00 | 2787 | 723 | -1.8 | -7.1 | |||
| 2009-05-01T00:00 | 2804 | 721 | -1.9 | -7.9 | 55 | 6 | |
| 2009-05-01T00:00 | 2816 | 720 | -1.9 | -8.4 | |||
| 2009-05-01T00:00 | 2826 | 719 | -2.0 | -9.2 | |||
| 2009-05-01T00:00 | 2830 | 719 | -2.0 | -9.6 | |||
| 2009-05-01T00:00 | 2845 | 718 | -2.1 | -10.2 | 52 | 6 | |
| 2009-05-01T00:00 | 2849 | 717 | -2.2 | -10.4 | |||
| 2009-05-01T00:00 | 2857 | 717 | -2.2 | -10.6 | |||
| 2009-05-01T00:00 | 2861 | 716 | -2.2 | -10.7 | |||
| 2009-05-01T00:00 | 2885 | 714 | -2.5 | -11.4 | |||
| 2009-05-01T00:00 | 2891 | 714 | -2.5 | -11.4 | 50 | 7 | |
| 2009-05-01T00:00 | 2897 | 713 | -2.5 | -11.5 | |||
| 2009-05-01T00:00 | 2903 | 712 | -2.5 | -11.6 | |||
| 2009-05-01T00:00 | 2928 | 710 | -2.6 | -12.0 | |||
| 2009-05-01T00:00 | 2936 | 710 | -2.7 | -12.1 | |||
| 2009-05-01T00:00 | 2939 | 709 | -2.6 | -12.1 | 49 | 7 | |
| 2009-05-01T00:00 | 2962 | 707 | -2.7 | -12.4 | |||
| 2009-05-01T00:00 | 2980 | 706 | -2.6 | -12.5 | |||
| 2009-05-01T00:00 | 2986 | 705 | -2.6 | -12.5 | |||
| 2009-05-01T00:00 | 2991 | 705 | -2.6 | -12.6 | 47 | 7 | |
| 2009-05-01T00:00 | 3007 | 703 | -2.7 | -12.9 | |||
| 2009-05-01T00:00 | 3010 | 703 | -2.7 | -13.0 | |||
| 2009-05-01T00:00 | 3012 | 703 | -2.7 | -13.1 | |||
| 2009-05-01T00:00 | 3020 | 702 | -2.8 | -13.3 | 44 | 7 | |
| 2009-05-01T00:00 | 3026 | 702 | -2.8 | -13.4 | |||
| 2009-05-01T00:00 | 3035 | 701 | -2.9 | -13.5 | |||
| 2009-05-01T00:00 | 3040 | 700 | -2.9 | -13.5 | |||
| 2009-05-01T00:00 | 3043 | 700 | -2.9 | -13.6 | |||
| 2009-05-01T00:00 | 3065 | 698 | -2.9 | -13.9 | 39 | 6 | |
| 2009-05-01T00:00 | 3076 | 697 | -2.9 | -14.0 | |||
| 2009-05-01T00:00 | 3081 | 697 | -2.9 | -14.1 | |||
| 2009-05-01T00:00 | 3105 | 695 | -3.1 | -14.5 | |||
| 2009-05-01T00:00 | 3113 | 694 | -3.2 | -14.6 | 31 | 5 | |
| 2009-05-01T00:00 | 3117 | 693 | -3.2 | -14.6 | |||
| 2009-05-01T00:00 | 3121 | 693 | -3.2 | -14.6 | |||
| 2009-05-01T00:00 | 3144 | 691 | -3.4 | -15.0 | |||
| 2009-05-01T00:00 | 3155 | 690 | -3.4 | -15.1 | |||
| 2009-05-01T00:00 | 3161 | 690 | -3.5 | -15.2 | 19 | 4 | |
| 2009-05-01T00:00 | 3183 | 688 | -3.6 | -15.6 | |||
| 2009-05-01T00:00 | 3188 | 687 | -3.6 | -15.7 | |||
| 2009-05-01T00:00 | 3191 | 687 | -3.6 | -15.7 | |||
| 2009-05-01T00:00 | 3198 | 686 | -3.6 | -15.9 | 2 | 3 | |
| 2009-05-01T00:00 | 3209 | 685 | -3.8 | -16.1 | |||
| 2009-05-01T00:00 | 3223 | 684 | -3.8 | -16.2 | |||
| 2009-05-01T00:00 | 3228 | 684 | -3.8 | -16.3 | |||
| 2009-05-01T00:00 | 3253 | 682 | -4.0 | -16.7 | |||
| 2009-05-01T00:00 | 3263 | 681 | -3.9 | -16.7 | |||
| 2009-05-01T00:00 | 3269 | 680 | -3.9 | -16.7 | |||
| 2009-05-01T00:00 | 3292 | 678 | -4.0 | -17.2 | |||
| 2009-05-01T00:00 | 3304 | 677 | -4.0 | -17.4 | |||
| 2009-05-01T00:00 | 3308 | 677 | -4.0 | -17.5 | |||
| 2009-05-01T00:00 | 3328 | 675 | -4.2 | -17.9 | |||
| 2009-05-01T00:00 | 3337 | 674 | -4.2 | -18.0 | |||
| 2009-05-01T00:00 | 3341 | 674 | -4.3 | -18.0 | |||
| 2009-05-01T00:00 | 3364 | 672 | -4.5 | -18.3 | |||
| 2009-05-01T00:00 | 3373 | 671 | -4.5 | -18.4 | |||
| 2009-05-01T00:00 | 3378 | 671 | -4.6 | -18.4 | |||
| 2009-05-01T00:00 | 3401 | 669 | -4.8 | -18.6 | |||
| 2009-05-01T00:00 | 3415 | 668 | -4.9 | -18.7 | |||
| 2009-05-01T00:00 | 3419 | 667 | -4.8 | -18.7 | |||
| 2009-05-01T00:00 | 3440 | 666 | -5.1 | -19.0 | |||
| 2009-05-01T00:00 | 3448 | 665 | -5.2 | -19.0 | |||
| 2009-05-01T00:00 | 3451 | 665 | -5.2 | -19.0 | |||
| 2009-05-01T00:00 | 3463 | 664 | -5.4 | -19.1 | 338 | 3 | |
| 2009-05-01T00:00 | 3471 | 663 | -5.5 | -19.2 | |||
| 2009-05-01T00:00 | 3485 | 662 | -5.5 | -19.3 | |||
| 2009-05-01T00:00 | 3489 | 661 | -5.6 | -19.3 | |||
| 2009-05-01T00:00 | 3514 | 659 | -5.8 | -19.5 | |||
| 2009-05-01T00:00 | 3525 | 658 | -5.9 | -19.5 | |||
| 2009-05-01T00:00 | 3530 | 658 | -5.9 | -19.5 | |||
| 2009-05-01T00:00 | 3550 | 656 | -6.2 | -19.7 | |||
| 2009-05-01T00:00 | 3554 | 656 | -6.3 | -19.8 | |||
| 2009-05-01T00:00 | 3556 | 656 | -6.2 | -19.7 | |||
| 2009-05-01T00:00 | 3572 | 655 | -6.3 | -19.9 | |||
| 2009-05-01T00:00 | 3588 | 653 | -6.4 | -20.0 | |||
| 2009-05-01T00:00 | 3593 | 653 | -6.3 | -20.0 | |||
| 2009-05-01T00:00 | 3617 | 651 | -6.6 | -20.2 | |||
| 2009-05-01T00:00 | 3623 | 650 | -6.7 | -20.2 | |||
| 2009-05-01T00:00 | 3627 | 650 | -6.7 | -20.2 | |||
| 2009-05-01T00:00 | 3648 | 648 | -7.0 | -20.5 | |||
| 2009-05-01T00:00 | 3664 | 647 | -7.0 | -20.5 | |||
| 2009-05-01T00:00 | 3670 | 646 | -7.0 | -20.5 | |||
| 2009-05-01T00:00 | 3696 | 644 | -7.2 | -20.7 | |||
| 2009-05-01T00:00 | 3706 | 643 | -7.3 | -20.7 | |||
| 2009-05-01T00:00 | 3710 | 643 | -7.3 | -20.7 | |||
| 2009-05-01T00:00 | 3731 | 641 | -7.6 | -20.9 | 37 | 3 | |
| 2009-05-01T00:00 | 3736 | 641 | -7.6 | -21.0 | |||
| 2009-05-01T00:00 | 3753 | 640 | -7.7 | -21.0 | |||
| 2009-05-01T00:00 | 3758 | 639 | -7.7 | -21.0 | |||
| 2009-05-01T00:00 | 3783 | 637 | -8.0 | -21.1 | |||
| 2009-05-01T00:00 | 3791 | 636 | -8.0 | -21.1 | |||
| 2009-05-01T00:00 | 3795 | 636 | -8.1 | -21.1 | |||
| 2009-05-01T00:00 | 3816 | 634 | -8.3 | -21.2 | |||
| 2009-05-01T00:00 | 3825 | 634 | -8.3 | -21.2 | |||
| 2009-05-01T00:00 | 3830 | 633 | -8.4 | -21.3 | |||
| 2009-05-01T00:00 | 3855 | 631 | -8.6 | -21.4 | |||
| 2009-05-01T00:00 | 3862 | 631 | -8.6 | -21.4 | |||
| 2009-05-01T00:00 | 3866 | 630 | -8.7 | -21.5 | |||
| 2009-05-01T00:00 | 3885 | 629 | -8.9 | -21.7 | |||
| 2009-05-01T00:00 | 3893 | 628 | -9.0 | -21.8 | |||
| 2009-05-01T00:00 | 3897 | 628 | -9.0 | -21.8 | |||
| 2009-05-01T00:00 | 3920 | 626 | -9.1 | -22.0 | |||
| 2009-05-01T00:00 | 3937 | 624 | -9.1 | -22.2 | |||
| 2009-05-01T00:00 | 3943 | 624 | -9.2 | -22.2 | |||
| 2009-05-01T00:00 | 3968 | 622 | -9.4 | -22.6 | |||
| 2009-05-01T00:00 | 3977 | 621 | -9.4 | -22.7 | |||
| 2009-05-01T00:00 | 3981 | 621 | -9.4 | -22.7 | |||
| 2009-05-01T00:00 | 3997 | 620 | -9.6 | -22.8 | 60 | 3 | |
| 2009-05-01T00:00 | 4004 | 619 | -9.6 | -22.8 | |||
| 2009-05-01T00:00 | 4006 | 619 | -9.7 | -22.8 | |||
| 2009-05-01T00:00 | 4028 | 617 | -9.9 | -23.0 | |||
| 2009-05-01T00:00 | 4043 | 616 | -9.9 | -23.0 | |||
| 2009-05-01T00:00 | 4050 | 615 | -9.9 | -23.0 | |||
| 2009-05-01T00:00 | 4081 | 613 | -10.2 | -23.3 | |||
| 2009-05-01T00:00 | 4094 | 612 | -10.2 | -23.3 | |||
| 2009-05-01T00:00 | 4098 | 612 | -10.3 | -23.4 | |||
| 2009-05-01T00:00 | 4115 | 610 | -10.5 | -23.6 | |||
| 2009-05-01T00:00 | 4120 | 610 | -10.6 | -23.6 | |||
| 2009-05-01T00:00 | 4122 | 610 | -10.6 | -23.6 | |||
| 2009-05-01T00:00 | 4141 | 608 | -10.9 | -23.9 | |||
| 2009-05-01T00:00 | 4157 | 607 | -10.9 | -23.9 | |||
| 2009-05-01T00:00 | 4163 | 606 | -10.9 | -23.9 | |||
| 2009-05-01T00:00 | 4190 | 604 | -11.2 | -24.2 | |||
| 2009-05-01T00:00 | 4200 | 604 | -11.2 | -24.3 | |||
| 2009-05-01T00:00 | 4205 | 603 | -11.3 | -24.3 | |||
| 2009-05-01T00:00 | 4232 | 601 | -11.5 | -24.5 | |||
| 2009-05-01T00:00 | 4239 | 600 | -11.6 | -24.5 | |||
| 2009-05-01T00:00 | 4243 | 600 | -11.6 | -24.6 | |||
| 2009-05-01T00:00 | 4245 | 600 | -11.6 | -24.6 | |||
| 2009-05-01T00:00 | 4262 | 599 | -11.9 | -24.8 | 85 | 3 | |
| 2009-05-01T00:00 | 4273 | 598 | -11.9 | -24.8 | |||
| 2009-05-01T00:00 | 4277 | 597 | -12.0 | -24.9 | |||
| 2009-05-01T00:00 | 4303 | 595 | -12.2 | -25.0 | |||
| 2009-05-01T00:00 | 4317 | 594 | -12.3 | -25.1 | |||
| 2009-05-01T00:00 | 4324 | 594 | -12.3 | -25.1 | |||
| 2009-05-01T00:00 | 4354 | 591 | -12.6 | -25.3 | |||
| 2009-05-01T00:00 | 4367 | 590 | -12.7 | -25.4 | |||
| 2009-05-01T00:00 | 4372 | 590 | -12.7 | -25.4 | |||
| 2009-05-01T00:00 | 4398 | 588 | -13.0 | -25.6 | |||
| 2009-05-01T00:00 | 4412 | 587 | -13.1 | -25.6 | |||
| 2009-05-01T00:00 | 4419 | 587 | -13.2 | -25.7 | |||
| 2009-05-01T00:00 | 4449 | 584 | -13.5 | -25.9 | |||
| 2009-05-01T00:00 | 4463 | 583 | -13.5 | -25.9 | |||
| 2009-05-01T00:00 | 4468 | 583 | -13.6 | -25.9 | |||
| 2009-05-01T00:00 | 4493 | 581 | -13.9 | -26.1 | |||
| 2009-05-01T00:00 | 4504 | 580 | -14.0 | -26.2 | |||
| 2009-05-01T00:00 | 4510 | 580 | -14.0 | -26.2 | |||
| 2009-05-01T00:00 | 4537 | 577 | -14.3 | -26.5 | |||
| 2009-05-01T00:00 | 4553 | 576 | -14.4 | -26.5 | |||
| 2009-05-01T00:00 | 4558 | 576 | -14.4 | -26.5 | |||
| 2009-05-01T00:00 | 4588 | 574 | -14.7 | -26.8 | 90 | 3 | |
| 2009-05-01T00:00 | 4610 | 572 | -14.8 | -27.0 | |||
| 2009-05-01T00:00 | 4618 | 571 | -14.8 | -27.0 | |||
| 2009-05-01T00:00 | 4645 | 569 | -15.1 | -27.3 | |||
| 2009-05-01T00:00 | 4649 | 569 | -15.1 | -27.4 | |||
| 2009-05-01T00:00 | 4651 | 569 | -15.2 | -27.4 | |||
| 2009-05-01T00:00 | 4672 | 567 | -15.5 | -27.7 | |||
| 2009-05-01T00:00 | 4692 | 566 | -15.6 | -27.7 | |||
| 2009-05-01T00:00 | 4699 | 565 | -15.6 | -27.7 | |||
| 2009-05-01T00:00 | 4727 | 563 | -15.8 | -27.8 | |||
| 2009-05-01T00:00 | 4735 | 562 | -15.9 | -27.8 | |||
| 2009-05-01T00:00 | 4739 | 562 | -15.9 | -27.8 | |||
| 2009-05-01T00:00 | 4763 | 560 | -16.2 | -28.1 | |||
| 2009-05-01T00:00 | 4779 | 559 | -16.2 | -28.1 | |||
| 2009-05-01T00:00 | 4785 | 559 | -16.1 | -28.1 | |||
| 2009-05-01T00:00 | 4811 | 557 | -16.4 | -28.4 | |||
| 2009-05-01T00:00 | 4826 | 556 | -16.5 | -28.5 | |||
| 2009-05-01T00:00 | 4831 | 555 | -16.5 | -28.6 | |||
| 2009-05-01T00:00 | 4860 | 553 | -16.8 | -28.9 | |||
| 2009-05-01T00:00 | 4874 | 552 | -16.8 | -28.9 | |||
| 2009-05-01T00:00 | 4881 | 552 | -16.9 | -29.0 | |||
| 2009-05-01T00:00 | 4910 | 550 | -17.2 | -29.4 | 118 | 4 | |
| 2009-05-01T00:00 | 4922 | 549 | -17.3 | -29.5 | |||
| 2009-05-01T00:00 | 4926 | 548 | -17.3 | -29.5 | |||
| 2009-05-01T00:00 | 4950 | 547 | -17.6 | -29.9 | |||
| 2009-05-01T00:00 | 4968 | 545 | -17.6 | -29.9 | |||
| 2009-05-01T00:00 | 4975 | 545 | -17.7 | -30.0 | |||
| 2009-05-01T00:00 | 5003 | 543 | -17.9 | -30.3 | |||
| 2009-05-01T00:00 | 5012 | 542 | -18.0 | -30.5 | |||
| 2009-05-01T00:00 | 5016 | 542 | -18.0 | -30.5 | |||
| 2009-05-01T00:00 | 5042 | 540 | -18.3 | -30.9 | |||
| 2009-05-01T00:00 | 5059 | 539 | -18.3 | -31.0 | |||
| 2009-05-01T00:00 | 5064 | 538 | -18.3 | -31.0 | |||
| 2009-05-01T00:00 | 5088 | 537 | -18.5 | -31.2 | |||
| 2009-05-01T00:00 | 5098 | 536 | -18.6 | -31.4 | |||
| 2009-05-01T00:00 | 5102 | 536 | -18.5 | -31.4 | |||
| 2009-05-01T00:00 | 5119 | 534 | -18.8 | -31.7 | |||
| 2009-05-01T00:00 | 5125 | 534 | -18.8 | -31.7 | |||
| 2009-05-01T00:00 | 5128 | 534 | -18.9 | -31.8 | |||
| 2009-05-01T00:00 | 5149 | 532 | -19.1 | -32.0 | |||
| 2009-05-01T00:00 | 5165 | 531 | -19.2 | -32.0 | |||
| 2009-05-01T00:00 | 5171 | 531 | -19.2 | -32.1 | |||
| 2009-05-01T00:00 | 5192 | 529 | -19.5 | -32.3 | 116 | 7 | |
| 2009-05-01T00:00 | 5198 | 529 | -19.5 | -32.3 | |||
| 2009-05-01T00:00 | 5214 | 528 | -19.7 | -32.4 | |||
| 2009-05-01T00:00 | 5219 | 527 | -19.7 | -32.4 | |||
| 2009-05-01T00:00 | 5247 | 525 | -19.9 | -32.6 | |||
| 2009-05-01T00:00 | 5259 | 524 | -20.0 | -32.7 | |||
| 2009-05-01T00:00 | 5265 | 524 | -20.0 | -32.7 | |||
| 2009-05-01T00:00 | 5299 | 522 | -20.3 | -33.0 | |||
| 2009-05-01T00:00 | 5309 | 521 | -20.3 | -33.0 | |||
| 2009-05-01T00:00 | 5314 | 521 | -20.3 | -33.0 | |||
| 2009-05-01T00:00 | 5339 | 519 | -20.6 | -33.3 | |||
| 2009-05-01T00:00 | 5355 | 518 | -20.6 | -33.4 | |||
| 2009-05-01T00:00 | 5361 | 517 | -20.7 | -33.4 | |||
| 2009-05-01T00:00 | 5384 | 516 | -20.9 | -33.7 | |||
| 2009-05-01T00:00 | 5396 | 515 | -21.0 | -33.7 | |||
| 2009-05-01T00:00 | 5400 | 515 | -21.0 | -33.7 | |||
| 2009-05-01T00:00 | 5423 | 513 | -21.3 | -34.0 | |||
| 2009-05-01T00:00 | 5435 | 512 | -21.3 | -34.1 | |||
| 2009-05-01T00:00 | 5440 | 512 | -21.3 | -34.1 | |||
| 2009-05-01T00:00 | 5469 | 510 | -21.6 | -34.4 | |||
| 2009-05-01T00:00 | 5476 | 509 | -21.6 | -34.4 | |||
| 2009-05-01T00:00 | 5480 | 509 | -21.7 | -34.4 | |||
| 2009-05-01T00:00 | 5493 | 508 | -21.8 | -34.5 | 118 | 7 | |
| 2009-05-01T00:00 | 5502 | 508 | -21.9 | -34.6 | |||
| 2009-05-01T00:00 | 5517 | 506 | -21.9 | -34.6 | |||
| 2009-05-01T00:00 | 5522 | 506 | -22.0 | -34.7 | |||
| 2009-05-01T00:00 | 5548 | 504 | -22.2 | -34.9 | |||
| 2009-05-01T00:00 | 5563 | 503 | -22.2 | -34.8 | |||
| 2009-05-01T00:00 | 5568 | 503 | -22.3 | -34.9 | |||
| 2009-05-01T00:00 | 5592 | 501 | -22.6 | -35.2 | |||
| 2009-05-01T00:00 | 5602 | 501 | -22.6 | -35.2 | |||
| 2009-05-01T00:00 | 5606 | 500 | -22.7 | -35.2 | |||
| 2009-05-01T00:00 | 5611 | 500 | -22.7 | -35.3 | |||
| 2009-05-01T00:00 | 5644 | 498 | -22.9 | -35.6 | |||
| 2009-05-01T00:00 | 5660 | 497 | -23.0 | -35.8 | |||
| 2009-05-01T00:00 | 5668 | 496 | -23.0 | -35.8 | |||
| 2009-05-01T00:00 | 5702 | 494 | -23.4 | -36.3 | |||
| 2009-05-01T00:00 | 5716 | 493 | -23.3 | -36.4 | |||
| 2009-05-01T00:00 | 5721 | 493 | -23.4 | -36.5 | |||
| 2009-05-01T00:00 | 5742 | 491 | -23.6 | -36.8 | |||
| 2009-05-01T00:00 | 5750 | 491 | -23.6 | -36.9 | |||
| 2009-05-01T00:00 | 5753 | 490 | -23.6 | -36.9 | |||
| 2009-05-01T00:00 | 5772 | 489 | -23.9 | -37.3 | |||
| 2009-05-01T00:00 | 5788 | 488 | -23.9 | -37.4 | |||
| 2009-05-01T00:00 | 5793 | 488 | -23.9 | -37.4 | |||
| 2009-05-01T00:00 | 5797 | 487 | -24.0 | -37.5 | 120 | 6 | |
| 2009-05-01T00:00 | 5814 | 486 | -24.2 | -37.8 | |||
| 2009-05-01T00:00 | 5821 | 486 | -24.3 | -37.8 | |||
| 2009-05-01T00:00 | 5824 | 486 | -24.3 | -37.9 | |||
| 2009-05-01T00:00 | 5850 | 484 | -24.6 | -38.2 | |||
| 2009-05-01T00:00 | 5861 | 483 | -24.6 | -38.2 | |||
| 2009-05-01T00:00 | 5866 | 483 | -24.7 | -38.3 | |||
| 2009-05-01T00:00 | 5895 | 481 | -25.0 | -38.6 | |||
| 2009-05-01T00:00 | 5914 | 480 | -25.1 | -38.6 | |||
| 2009-05-01T00:00 | 5920 | 479 | -25.1 | -38.6 | |||
| 2009-05-01T00:00 | 5947 | 478 | -25.5 | -38.9 | |||
| 2009-05-01T00:00 | 5959 | 477 | -25.5 | -38.9 | |||
| 2009-05-01T00:00 | 5963 | 476 | -25.5 | -38.9 | |||
| 2009-05-01T00:00 | 5985 | 475 | -25.8 | -39.1 | |||
| 2009-05-01T00:00 | 5998 | 474 | -25.8 | -39.1 | |||
| 2009-05-01T00:00 | 6002 | 474 | -25.8 | -39.1 | |||
| 2009-05-01T00:00 | 6024 | 472 | -26.1 | -39.4 | |||
| 2009-05-01T00:00 | 6037 | 472 | -26.1 | -39.4 | |||
| 2009-05-01T00:00 | 6041 | 471 | -26.1 | -39.5 | |||
| 2009-05-01T00:00 | 6065 | 470 | -26.5 | -39.8 | |||
| 2009-05-01T00:00 | 6077 | 469 | -26.5 | -39.9 | |||
| 2009-05-01T00:00 | 6083 | 469 | -26.5 | -39.9 | 115 | 7 | |
| 2009-05-01T00:00 | 6089 | 468 | -26.6 | -39.9 | |||
| 2009-05-01T00:00 | 6115 | 467 | -26.8 | -40.2 | |||
| 2009-05-01T00:00 | 6123 | 466 | -26.9 | -40.2 | |||
| 2009-05-01T00:00 | 6127 | 466 | -26.9 | -40.2 | |||
| 2009-05-01T00:00 | 6153 | 464 | -27.2 | -40.4 | |||
| 2009-05-01T00:00 | 6162 | 463 | -27.2 | -40.4 | |||
| 2009-05-01T00:00 | 6166 | 463 | -27.2 | -40.4 | |||
| 2009-05-01T00:00 | 6189 | 462 | -27.6 | -40.7 | |||
| 2009-05-01T00:00 | 6201 | 461 | -27.6 | -40.7 | |||
| 2009-05-01T00:00 | 6206 | 461 | -27.6 | -40.7 | |||
| 2009-05-01T00:00 | 6224 | 460 | -27.9 | -40.9 | |||
| 2009-05-01T00:00 | 6233 | 459 | -27.9 | -40.9 | |||
| 2009-05-01T00:00 | 6236 | 459 | -27.9 | -41.0 | |||
| 2009-05-01T00:00 | 6256 | 457 | -28.2 | -41.2 | |||
| 2009-05-01T00:00 | 6274 | 456 | -28.2 | -41.2 | |||
| 2009-05-01T00:00 | 6280 | 456 | -28.3 | -41.3 | |||
| 2009-05-01T00:00 | 6305 | 454 | -28.6 | -41.6 | |||
| 2009-05-01T00:00 | 6318 | 454 | -28.6 | -41.7 | |||
| 2009-05-01T00:00 | 6322 | 453 | -28.6 | -41.7 | |||
| 2009-05-01T00:00 | 6350 | 451 | -29.0 | -42.1 | |||
| 2009-05-01T00:00 | 6358 | 451 | -29.0 | -42.1 | 111 | 6 | |
| 2009-05-01T00:00 | 6374 | 450 | -29.0 | -42.1 | |||
| 2009-05-01T00:00 | 6382 | 450 | -29.0 | -42.1 | |||
| 2009-05-01T00:00 | 6409 | 448 | -29.5 | -42.5 | |||
| 2009-05-01T00:00 | 6417 | 447 | -29.5 | -42.5 | |||
| 2009-05-01T00:00 | 6419 | 447 | -29.5 | -42.5 | |||
| 2009-05-01T00:00 | 6437 | 446 | -29.8 | -42.8 | |||
| 2009-05-01T00:00 | 6447 | 445 | -29.8 | -42.8 | |||
| 2009-05-01T00:00 | 6458 | 445 | -29.9 | -42.9 | |||
| 2009-05-01T00:00 | 6484 | 443 | -30.2 | -43.2 | |||
| 2009-05-01T00:00 | 6494 | 442 | -30.3 | -43.2 | |||
| 2009-05-01T00:00 | 6503 | 442 | -30.3 | -43.2 | |||
| 2009-05-01T00:00 | 6528 | 440 | -30.6 | -43.5 | |||
| 2009-05-01T00:00 | 6537 | 440 | -30.7 | -43.5 | |||
| 2009-05-01T00:00 | 6547 | 439 | -30.7 | -43.5 | |||
| 2009-05-01T00:00 | 6570 | 438 | -31.0 | -43.7 | |||
| 2009-05-01T00:00 | 6577 | 437 | -31.1 | -43.7 | |||
| 2009-05-01T00:00 | 6581 | 437 | -31.2 | -43.8 | |||
| 2009-05-01T00:00 | 6608 | 435 | -31.4 | -43.9 | |||
| 2009-05-01T00:00 | 6620 | 435 | -31.5 | -44.0 | |||
| 2009-05-01T00:00 | 6625 | 434 | -31.5 | -44.0 | |||
| 2009-05-01T00:00 | 6647 | 433 | -31.7 | -44.1 | 117 | 7 | |
| 2009-05-01T00:00 | 6658 | 432 | -31.9 | -44.2 | |||
| 2009-05-01T00:00 | 6668 | 432 | -31.9 | -44.2 | |||
| 2009-05-01T00:00 | 6673 | 431 | -31.9 | -44.2 | |||
| 2009-05-01T00:00 | 6703 | 430 | -32.2 | -44.4 | |||
| 2009-05-01T00:00 | 6713 | 429 | -32.2 | -44.4 | |||
| 2009-05-01T00:00 | 6718 | 429 | -32.3 | -44.4 | |||
| 2009-05-01T00:00 | 6745 | 427 | -32.7 | -44.7 | |||
| 2009-05-01T00:00 | 6754 | 427 | -32.7 | -44.7 | |||
| 2009-05-01T00:00 | 6758 | 426 | -32.7 | -44.7 | |||
| 2009-05-01T00:00 | 6785 | 425 | -33.1 | -45.0 | |||
| 2009-05-01T00:00 | 6794 | 424 | -33.0 | -44.9 | |||
| 2009-05-01T00:00 | 6798 | 424 | -33.1 | -44.9 | |||
| 2009-05-01T00:00 | 6824 | 422 | -33.4 | -45.1 | |||
| 2009-05-01T00:00 | 6832 | 422 | -33.4 | -45.1 | |||
| 2009-05-01T00:00 | 6835 | 422 | -33.4 | -45.1 | |||
| 2009-05-01T00:00 | 6860 | 420 | -33.7 | -45.4 | |||
| 2009-05-01T00:00 | 6869 | 420 | -33.7 | -45.3 | |||
| 2009-05-01T00:00 | 6873 | 419 | -33.7 | -45.4 | |||
| 2009-05-01T00:00 | 6901 | 418 | -34.1 | -45.7 | |||
| 2009-05-01T00:00 | 6911 | 417 | -34.2 | -45.7 | |||
| 2009-05-01T00:00 | 6916 | 417 | -34.2 | -45.7 | |||
| 2009-05-01T00:00 | 6921 | 416 | -34.2 | -45.7 | 122 | 7 | |
| 2009-05-01T00:00 | 6945 | 415 | -34.5 | -45.9 | |||
| 2009-05-01T00:00 | 6955 | 414 | -34.5 | -46.0 | |||
| 2009-05-01T00:00 | 6959 | 414 | -34.6 | -46.0 | |||
| 2009-05-01T00:00 | 6992 | 412 | -35.0 | -46.3 | |||
| 2009-05-01T00:00 | 7005 | 412 | -35.0 | -46.3 | |||
| 2009-05-01T00:00 | 7011 | 411 | -35.0 | -46.3 | |||
| 2009-05-01T00:00 | 7042 | 409 | -35.4 | -46.6 | |||
| 2009-05-01T00:00 | 7051 | 409 | -35.4 | -46.7 | |||
| 2009-05-01T00:00 | 7055 | 409 | -35.4 | -46.7 | |||
| 2009-05-01T00:00 | 7082 | 407 | -35.7 | -46.9 | |||
| 2009-05-01T00:00 | 7092 | 406 | -35.8 | -47.0 | |||
| 2009-05-01T00:00 | 7097 | 406 | -35.8 | -47.1 | |||
| 2009-05-01T00:00 | 7129 | 404 | -36.1 | -47.3 | |||
| 2009-05-01T00:00 | 7140 | 404 | -36.2 | -47.4 | |||
| 2009-05-01T00:00 | 7145 | 403 | -36.2 | -47.4 | |||
| 2009-05-01T00:00 | 7174 | 402 | -36.5 | -47.7 | |||
| 2009-05-01T00:00 | 7182 | 401 | -36.5 | -47.7 | |||
| 2009-05-01T00:00 | 7186 | 401 | -36.5 | -47.7 | |||
| 2009-05-01T00:00 | 7202 | 400 | -36.7 | -47.9 | |||
| 2009-05-01T00:00 | 7211 | 399 | -36.8 | -48.0 | |||
| 2009-05-01T00:00 | 7216 | 399 | -36.8 | -48.0 | 122 | 6 | |
| 2009-05-01T00:00 | 7220 | 399 | -36.8 | -48.0 | |||
| 2009-05-01T00:00 | 7229 | 398 | -36.9 | -48.0 | |||
| 2009-05-01T00:00 | 7251 | 397 | -37.1 | -48.3 | |||
| 2009-05-01T00:00 | 7258 | 397 | -37.2 | -48.3 | |||
| 2009-05-01T00:00 | 7266 | 396 | -37.2 | -48.4 | |||
| 2009-05-01T00:00 | 7285 | 395 | -37.5 | -48.7 | |||
| 2009-05-01T00:00 | 7293 | 395 | -37.6 | -48.7 | |||
| 2009-05-01T00:00 | 7300 | 394 | -37.6 | -48.7 | |||
| 2009-05-01T00:00 | 7320 | 393 | -37.9 | -49.0 | |||
| 2009-05-01T00:00 | 7334 | 392 | -37.9 | -49.0 | |||
| 2009-05-01T00:00 | 7339 | 392 | -38.0 | -49.1 | |||
| 2009-05-01T00:00 | 7360 | 391 | -38.3 | -49.4 | |||
| 2009-05-01T00:00 | 7371 | 390 | -38.3 | -49.4 | |||
| 2009-05-01T00:00 | 7375 | 390 | -38.5 | -49.5 | |||
| 2009-05-01T00:00 | 7402 | 389 | -38.8 | -49.8 | |||
| 2009-05-01T00:00 | 7426 | 387 | -38.7 | -49.8 | |||
| 2009-05-01T00:00 | 7434 | 387 | -38.8 | -49.8 | |||
| 2009-05-01T00:00 | 7468 | 385 | -39.1 | -50.2 | |||
| 2009-05-01T00:00 | 7483 | 384 | -39.2 | -50.3 | |||
| 2009-05-01T00:00 | 7488 | 384 | -39.3 | -50.3 | |||
| 2009-05-01T00:00 | 7501 | 383 | -39.5 | -50.5 | 120 | 5 | |
| 2009-05-01T00:00 | 7509 | 383 | -39.6 | -50.6 | |||
| 2009-05-01T00:00 | 7519 | 382 | -39.6 | -50.6 | |||
| 2009-05-01T00:00 | 7522 | 382 | -39.6 | -50.6 | |||
| 2009-05-01T00:00 | 7541 | 381 | -39.9 | -50.9 | |||
| 2009-05-01T00:00 | 7557 | 380 | -39.9 | -50.9 | |||
| 2009-05-01T00:00 | 7563 | 380 | -40.0 | -50.9 | |||
| 2009-05-01T00:00 | 7588 | 378 | -40.3 | -51.2 | |||
| 2009-05-01T00:00 | 7602 | 377 | -40.4 | -51.3 | |||
| 2009-05-01T00:00 | 7607 | 377 | -40.4 | -51.3 | |||
| 2009-05-01T00:00 | 7636 | 375 | -40.8 | -51.7 | |||
| 2009-05-01T00:00 | 7645 | 375 | -40.9 | -51.7 | |||
| 2009-05-01T00:00 | 7650 | 375 | -40.9 | -51.7 | |||
| 2009-05-01T00:00 | 7679 | 373 | -41.2 | -52.1 | |||
| 2009-05-01T00:00 | 7688 | 373 | -41.3 | -52.1 | |||
| 2009-05-01T00:00 | 7697 | 372 | -41.3 | -52.1 | |||
| 2009-05-01T00:00 | 7721 | 371 | -41.6 | -52.4 | |||
| 2009-05-01T00:00 | 7736 | 370 | -41.6 | -52.4 | |||
| 2009-05-01T00:00 | 7741 | 370 | -41.7 | -52.4 | |||
| 2009-05-01T00:00 | 7765 | 368 | -42.1 | -52.8 | |||
| 2009-05-01T00:00 | 7779 | 368 | -42.1 | -52.8 | 132 | 5 | |
| 2009-05-01T00:00 | 7783 | 367 | -42.1 | -52.8 | |||
| 2009-05-01T00:00 | 7807 | 366 | -42.4 | -53.1 | |||
| 2009-05-01T00:00 | 7823 | 365 | -42.5 | -53.1 | |||
| 2009-05-01T00:00 | 7828 | 365 | -42.5 | -53.1 | |||
| 2009-05-01T00:00 | 7849 | 364 | -42.8 | -53.5 | |||
| 2009-05-01T00:00 | 7859 | 363 | -42.8 | -53.5 | |||
| 2009-05-01T00:00 | 7863 | 363 | -42.9 | -53.5 | |||
| 2009-05-01T00:00 | 7882 | 362 | -43.2 | -53.8 | |||
| 2009-05-01T00:00 | 7897 | 361 | -43.2 | -53.8 | |||
| 2009-05-01T00:00 | 7902 | 361 | -43.2 | -53.8 | |||
| 2009-05-01T00:00 | 7933 | 359 | -43.5 | -54.1 | |||
| 2009-05-01T00:00 | 7944 | 359 | -43.6 | -54.1 | |||
| 2009-05-01T00:00 | 7954 | 358 | -43.6 | -54.1 | |||
| 2009-05-01T00:00 | 7978 | 357 | -44.0 | -54.5 | |||
| 2009-05-01T00:00 | 7989 | 356 | -44.0 | -54.5 | |||
| 2009-05-01T00:00 | 7993 | 356 | -44.0 | -54.5 | |||
| 2009-05-01T00:00 | 8014 | 355 | -44.4 | -54.8 | |||
| 2009-05-01T00:00 | 8030 | 354 | -44.4 | -54.8 | |||
| 2009-05-01T00:00 | 8035 | 354 | -44.4 | -54.8 | |||
| 2009-05-01T00:00 | 8053 | 353 | -44.7 | -55.0 | 115 | 4 | |
| 2009-05-01T00:00 | 8057 | 353 | -44.7 | -55.1 | |||
| 2009-05-01T00:00 | 8067 | 352 | -44.7 | -55.1 | |||
| 2009-05-01T00:00 | 8071 | 352 | -44.8 | -55.2 | |||
| 2009-05-01T00:00 | 8089 | 351 | -45.1 | -55.4 | |||
| 2009-05-01T00:00 | 8101 | 350 | -45.1 | -55.4 | |||
| 2009-05-01T00:00 | 8105 | 350 | -45.1 | -55.4 | |||
| 2009-05-01T00:00 | 8129 | 349 | -45.4 | -55.7 | |||
| 2009-05-01T00:00 | 8136 | 349 | -45.4 | -55.7 | |||
| 2009-05-01T00:00 | 8144 | 348 | -45.4 | -55.7 | |||
| 2009-05-01T00:00 | 8162 | 347 | -45.7 | -55.9 | |||
| 2009-05-01T00:00 | 8171 | 347 | -45.7 | -55.9 | |||
| 2009-05-01T00:00 | 8174 | 347 | -45.7 | -56.0 | |||
| 2009-05-01T00:00 | 8194 | 346 | -46.0 | -56.2 | |||
| 2009-05-01T00:00 | 8209 | 345 | -46.0 | -56.2 | |||
| 2009-05-01T00:00 | 8214 | 345 | -46.0 | -56.2 | |||
| 2009-05-01T00:00 | 8235 | 343 | -46.3 | -56.5 | |||
| 2009-05-01T00:00 | 8243 | 343 | -46.3 | -56.4 | |||
| 2009-05-01T00:00 | 8246 | 343 | -46.3 | -56.5 | |||
| 2009-05-01T00:00 | 8265 | 342 | -46.6 | -56.7 | |||
| 2009-05-01T00:00 | 8273 | 342 | -46.6 | -56.7 | |||
| 2009-05-01T00:00 | 8277 | 341 | -46.6 | -56.7 | 101 | 4 | |
| 2009-05-01T00:00 | 8300 | 340 | -46.9 | -56.9 | |||
| 2009-05-01T00:00 | 8308 | 340 | -46.8 | -56.9 | |||
| 2009-05-01T00:00 | 8316 | 339 | -46.9 | -56.9 | |||
| 2009-05-01T00:00 | 8334 | 338 | -47.1 | -57.2 | |||
| 2009-05-01T00:00 | 8344 | 338 | -47.1 | -57.1 | |||
| 2009-05-01T00:00 | 8347 | 338 | -47.1 | -57.1 | |||
| 2009-05-01T00:00 | 8366 | 337 | -47.3 | -57.3 | |||
| 2009-05-01T00:00 | 8379 | 336 | -47.2 | -57.2 | |||
| 2009-05-01T00:00 | 8383 | 336 | -47.2 | -57.2 | |||
| 2009-05-01T00:00 | 8405 | 335 | -47.4 | -57.4 | |||
| 2009-05-01T00:00 | 8417 | 334 | -47.3 | -57.3 | |||
| 2009-05-01T00:00 | 8420 | 334 | -47.3 | -57.3 | |||
| 2009-05-01T00:00 | 8443 | 333 | -47.6 | -57.5 | |||
| 2009-05-01T00:00 | 8450 | 332 | -47.4 | -57.4 | |||
| 2009-05-01T00:00 | 8456 | 332 | -47.4 | -57.4 | |||
| 2009-05-01T00:00 | 8471 | 331 | -47.6 | -57.6 | |||
| 2009-05-01T00:00 | 8478 | 331 | -47.6 | -57.6 | |||
| 2009-05-01T00:00 | 8480 | 331 | -47.6 | -57.6 | |||
| 2009-05-01T00:00 | 8498 | 330 | -47.7 | -57.7 | 117 | 1 | |
| 2009-05-01T00:00 | 8502 | 330 | -47.7 | -57.7 | |||
| 2009-05-01T00:00 | 8525 | 329 | -47.7 | -57.7 | |||
| 2009-05-01T00:00 | 8532 | 328 | -47.7 | -57.7 | |||
| 2009-05-01T00:00 | 8563 | 327 | -47.9 | -57.8 | |||
| 2009-05-01T00:00 | 8576 | 326 | -47.8 | -57.8 | |||
| 2009-05-01T00:00 | 8581 | 326 | -47.8 | -57.7 | |||
| 2009-05-01T00:00 | 8606 | 325 | -48.0 | -57.9 | |||
| 2009-05-01T00:00 | 8614 | 324 | -47.9 | -57.9 | |||
| 2009-05-01T00:00 | 8623 | 324 | -48.0 | -57.9 | |||
| 2009-05-01T00:00 | 8647 | 323 | -48.2 | -58.2 | |||
| 2009-05-01T00:00 | 8664 | 322 | -48.2 | -58.2 | |||
| 2009-05-01T00:00 | 8670 | 322 | -48.3 | -58.2 | |||
| 2009-05-01T00:00 | 8696 | 320 | -48.5 | -58.4 | |||
| 2009-05-01T00:00 | 8709 | 320 | -48.3 | -58.1 | |||
| 2009-05-01T00:00 | 8713 | 319 | -48.2 | -58.1 | |||
| 2009-05-01T00:00 | 8734 | 318 | -48.4 | -58.3 | |||
| 2009-05-01T00:00 | 8745 | 318 | -48.3 | -58.2 | |||
| 2009-05-01T00:00 | 8748 | 318 | -48.4 | -58.2 | |||
| 2009-05-01T00:00 | 8770 | 317 | -48.7 | -58.5 | |||
| 2009-05-01T00:00 | 8778 | 316 | -48.6 | -58.4 | |||
| 2009-05-01T00:00 | 8781 | 316 | -48.6 | -58.4 | 346 | 3 | |
| 2009-05-01T00:00 | 8785 | 316 | -48.6 | -58.4 | |||
| 2009-05-01T00:00 | 8804 | 315 | -48.8 | -58.6 | |||
| 2009-05-01T00:00 | 8816 | 315 | -48.8 | -58.6 | |||
| 2009-05-01T00:00 | 8820 | 314 | -48.8 | -58.6 | |||
| 2009-05-01T00:00 | 8839 | 313 | -49.0 | -58.8 | |||
| 2009-05-01T00:00 | 8851 | 313 | -49.0 | -58.8 | |||
| 2009-05-01T00:00 | 8854 | 313 | -49.0 | -58.8 | |||
| 2009-05-01T00:00 | 8877 | 312 | -49.3 | -59.0 | |||
| 2009-05-01T00:00 | 8885 | 311 | -49.3 | -59.0 | |||
| 2009-05-01T00:00 | 8893 | 311 | -49.3 | -59.0 | |||
| 2009-05-01T00:00 | 8913 | 310 | -49.7 | -59.4 | |||
| 2009-05-01T00:00 | 8926 | 309 | -49.7 | -59.4 | |||
| 2009-05-01T00:00 | 8930 | 309 | -49.7 | -59.4 | |||
| 2009-05-01T00:00 | 8950 | 308 | -50.0 | -59.7 | |||
| 2009-05-01T00:00 | 8961 | 308 | -49.9 | -59.6 | |||
| 2009-05-01T00:00 | 8965 | 307 | -49.8 | -59.5 | |||
| 2009-05-01T00:00 | 8984 | 307 | -50.1 | -59.8 | |||
| 2009-05-01T00:00 | 8996 | 306 | -50.0 | -59.8 | |||
| 2009-05-01T00:00 | 9000 | 306 | -50.0 | -59.7 | |||
| 2009-05-01T00:00 | 9018 | 305 | -50.2 | -59.9 | 0 | 3 | |
| 2009-05-01T00:00 | 9027 | 305 | -50.3 | -60.0 | |||
| 2009-05-01T00:00 | 9036 | 304 | -50.3 | -60.0 | |||
| 2009-05-01T00:00 | 9046 | 304 | -50.3 | -60.0 | |||
| 2009-05-01T00:00 | 9069 | 303 | -50.4 | -60.1 | |||
| 2009-05-01T00:00 | 9081 | 302 | -50.4 | -60.1 | |||
| 2009-05-01T00:00 | 9086 | 302 | -50.4 | -60.1 | |||
| 2009-05-01T00:00 | 9109 | 301 | -50.7 | -60.4 | |||
| 2009-05-01T00:00 | 9125 | 300 | -50.7 | -60.3 | |||
| 2009-05-01T00:00 | 9131 | 300 | -50.8 | -60.4 | |||
| 2009-05-01T00:00 | 9164 | 298 | -51.2 | -60.8 | |||
| 2009-05-01T00:00 | 9175 | 298 | -51.2 | -60.8 | |||
| 2009-05-01T00:00 | 9187 | 297 | -51.3 | -60.9 | |||
| 2009-05-01T00:00 | 9211 | 296 | -51.6 | -61.2 | |||
| 2009-05-01T00:00 | 9223 | 296 | -51.6 | -61.2 | |||
| 2009-05-01T00:00 | 9227 | 295 | -51.6 | -61.2 | |||
| 2009-05-01T00:00 | 9246 | 294 | -52.0 | -61.5 | |||
| 2009-05-01T00:00 | 9258 | 294 | -52.0 | -61.5 | |||
| 2009-05-01T00:00 | 9262 | 294 | -52.0 | -61.5 | |||
| 2009-05-01T00:00 | 9283 | 293 | -52.3 | -61.8 | |||
| 2009-05-01T00:00 | 9295 | 292 | -52.2 | -61.7 | 10 | 4 | |
| 2009-05-01T00:00 | 9304 | 292 | -52.2 | -61.7 | |||
| 2009-05-01T00:00 | 9326 | 291 | -52.5 | -62.0 | |||
| 2009-05-01T00:00 | 9342 | 290 | -52.5 | -62.0 | |||
| 2009-05-01T00:00 | 9348 | 290 | -52.5 | -62.0 | |||
| 2009-05-01T00:00 | 9371 | 289 | -52.6 | -62.0 | |||
| 2009-05-01T00:00 | 9382 | 288 | -52.5 | -62.0 | |||
| 2009-05-01T00:00 | 9386 | 288 | -52.5 | -61.9 | |||
| 2009-05-01T00:00 | 9405 | 287 | -52.5 | -62.0 | |||
| 2009-05-01T00:00 | 9416 | 287 | -52.4 | -61.8 | |||
| 2009-05-01T00:00 | 9420 | 287 | -52.1 | -61.5 | |||
| 2009-05-01T00:00 | 9446 | 286 | -51.9 | -61.4 | |||
| 2009-05-01T00:00 | 9461 | 285 | -51.6 | -61.2 | |||
| 2009-05-01T00:00 | 9466 | 285 | -51.3 | -60.9 | |||
| 2009-05-01T00:00 | 9488 | 284 | -51.3 | -60.9 | |||
| 2009-05-01T00:00 | 9500 | 283 | -51.2 | -60.8 | |||
| 2009-05-01T00:00 | 9504 | 283 | -51.3 | -60.9 | |||
| 2009-05-01T00:00 | 9525 | 282 | -51.6 | -61.2 | |||
| 2009-05-01T00:00 | 9538 | 281 | -51.5 | -61.0 | |||
| 2009-05-01T00:00 | 9543 | 281 | -51.5 | -61.1 | |||
| 2009-05-01T00:00 | 9555 | 281 | -51.5 | -61.1 | 5 | 4 | |
| 2009-05-01T00:00 | 9568 | 280 | -51.5 | -61.1 | |||
| 2009-05-01T00:00 | 9575 | 280 | -51.4 | -61.0 | |||
| 2009-05-01T00:00 | 9583 | 280 | -51.2 | -60.8 | |||
| 2009-05-01T00:00 | 9604 | 279 | -51.2 | -60.8 | |||
| 2009-05-01T00:00 | 9620 | 278 | -51.1 | -60.8 | |||
| 2009-05-01T00:00 | 9626 | 278 | -51.1 | -60.8 | |||
| 2009-05-01T00:00 | 9650 | 277 | -51.2 | -60.8 | |||
| 2009-05-01T00:00 | 9662 | 276 | -51.0 | -60.8 | |||
| 2009-05-01T00:00 | 9666 | 276 | -51.1 | -60.8 | |||
| 2009-05-01T00:00 | 9687 | 275 | -51.3 | -61.0 | |||
| 2009-05-01T00:00 | 9700 | 275 | -51.3 | -61.0 | |||
| 2009-05-01T00:00 | 9709 | 274 | -51.3 | -61.0 | |||
| 2009-05-01T00:00 | 9733 | 273 | -51.5 | -61.2 | |||
| 2009-05-01T00:00 | 9750 | 272 | -51.5 | -61.2 | |||
| 2009-05-01T00:00 | 9755 | 272 | -51.5 | -61.2 | |||
| 2009-05-01T00:00 | 9778 | 271 | -51.8 | -61.5 | |||
| 2009-05-01T00:00 | 9786 | 271 | -51.7 | -61.4 | |||
| 2009-05-01T00:00 | 9789 | 271 | -51.8 | -61.4 | |||
| 2009-05-01T00:00 | 9808 | 270 | -51.9 | -61.5 | |||
| 2009-05-01T00:00 | 9818 | 270 | -51.8 | -61.5 | 319 | 5 | |
| 2009-05-01T00:00 | 9823 | 269 | -51.8 | -61.5 | |||
| 2009-05-01T00:00 | 9827 | 269 | -51.8 | -61.5 | |||
| 2009-05-01T00:00 | 9851 | 268 | -52.0 | -61.6 | |||
| 2009-05-01T00:00 | 9857 | 268 | -51.8 | -61.5 | |||
| 2009-05-01T00:00 | 9863 | 268 | -51.8 | -61.4 | |||
| 2009-05-01T00:00 | 9881 | 267 | -52.0 | -61.7 | |||
| 2009-05-01T00:00 | 9895 | 266 | -52.0 | -61.7 | |||
| 2009-05-01T00:00 | 9899 | 266 | -52.0 | -61.7 | |||
| 2009-05-01T00:00 | 9922 | 265 | -52.4 | -62.0 | |||
| 2009-05-01T00:00 | 9936 | 265 | -52.3 | -61.9 | |||
| 2009-05-01T00:00 | 9940 | 265 | -52.3 | -61.9 | |||
| 2009-05-01T00:00 | 9961 | 264 | -52.5 | -62.1 | |||
| 2009-05-01T00:00 | 9966 | 263 | -52.5 | -62.1 | |||
| 2009-05-01T00:00 | 9971 | 263 | -52.5 | -62.1 | |||
| 2009-05-01T00:00 | 9988 | 263 | -52.6 | -62.2 | |||
| 2009-05-01T00:00 | 10001 | 262 | -52.5 | -62.1 | |||
| 2009-05-01T00:00 | 10006 | 262 | -52.5 | -62.1 | |||
| 2009-05-01T00:00 | 10029 | 261 | -52.8 | -62.4 | |||
| 2009-05-01T00:00 | 10042 | 260 | -52.7 | -62.2 | |||
| 2009-05-01T00:00 | 10047 | 260 | -52.7 | -62.2 | |||
| 2009-05-01T00:00 | 10054 | 260 | -52.8 | -62.4 | 320 | 6 | |
| 2009-05-01T00:00 | 10065 | 259 | -53.0 | -62.5 | |||
| 2009-05-01T00:00 | 10073 | 259 | -53.0 | -62.5 | |||
| 2009-05-01T00:00 | 10078 | 259 | -52.9 | -62.5 | |||
| 2009-05-01T00:00 | 10094 | 258 | -53.2 | -62.7 | |||
| 2009-05-01T00:00 | 10106 | 258 | -53.2 | -62.7 | |||
| 2009-05-01T00:00 | 10110 | 258 | -53.2 | -62.7 | |||
| 2009-05-01T00:00 | 10132 | 257 | -53.4 | -62.9 | |||
| 2009-05-01T00:00 | 10147 | 256 | -53.3 | -62.8 | |||
| 2009-05-01T00:00 | 10152 | 256 | -53.3 | -62.8 | |||
| 2009-05-01T00:00 | 10178 | 255 | -53.7 | -63.2 | |||
| 2009-05-01T00:00 | 10193 | 254 | -53.5 | -63.0 | |||
| 2009-05-01T00:00 | 10198 | 254 | -53.6 | -63.1 | |||
| 2009-05-01T00:00 | 10226 | 253 | -53.8 | -63.3 | |||
| 2009-05-01T00:00 | 10239 | 253 | -53.7 | -63.2 | |||
| 2009-05-01T00:00 | 10243 | 252 | -53.7 | -63.2 | |||
| 2009-05-01T00:00 | 10265 | 252 | -53.6 | -63.1 | |||
| 2009-05-01T00:00 | 10278 | 251 | -53.6 | -63.1 | |||
| 2009-05-01T00:00 | 10282 | 251 | -53.6 | -63.1 | |||
| 2009-05-01T00:00 | 10304 | 250 | -53.9 | -63.3 | |||
| 2009-05-01T00:00 | 10305 | 250 | -53.9 | -63.4 | |||
| 2009-05-01T00:00 | 10310 | 250 | -53.9 | -63.4 | 329 | 9 | |
| 2009-05-01T00:00 | 10320 | 249 | -53.9 | -63.3 | |||
| 2009-05-01T00:00 | 10325 | 249 | -53.9 | -63.4 | |||
| 2009-05-01T00:00 | 10351 | 248 | -54.3 | -63.7 | |||
| 2009-05-01T00:00 | 10362 | 248 | -54.3 | -63.7 | |||
| 2009-05-01T00:00 | 10366 | 248 | -54.3 | -63.7 | |||
| 2009-05-01T00:00 | 10386 | 247 | -54.7 | -64.1 | |||
| 2009-05-01T00:00 | 10401 | 246 | -54.7 | -64.1 | |||
| 2009-05-01T00:00 | 10406 | 246 | -54.7 | -64.1 | |||
| 2009-05-01T00:00 | 10427 | 245 | -55.0 | -64.3 | |||
| 2009-05-01T00:00 | 10438 | 245 | -55.0 | -64.3 | |||
| 2009-05-01T00:00 | 10441 | 245 | -55.0 | -64.3 | |||
| 2009-05-01T00:00 | 10465 | 244 | -55.2 | -64.5 | |||
| 2009-05-01T00:00 | 10480 | 243 | -55.1 | -64.4 | |||
| 2009-05-01T00:00 | 10485 | 243 | -55.1 | -64.4 | |||
| 2009-05-01T00:00 | 10508 | 242 | -55.4 | -64.7 | |||
| 2009-05-01T00:00 | 10521 | 242 | -55.3 | -64.6 | |||
| 2009-05-01T00:00 | 10525 | 242 | -55.3 | -64.6 | |||
| 2009-05-01T00:00 | 10542 | 241 | -55.6 | -64.8 | |||
| 2009-05-01T00:00 | 10548 | 241 | -55.5 | -64.8 | |||
| 2009-05-01T00:00 | 10553 | 240 | -55.5 | -64.8 | 345 | 9 | |
| 2009-05-01T00:00 | 10570 | 240 | -55.8 | -65.1 | |||
| 2009-05-01T00:00 | 10587 | 239 | -55.8 | -65.0 | |||
| 2009-05-01T00:00 | 10593 | 239 | -55.8 | -65.0 | |||
| 2009-05-01T00:00 | 10614 | 238 | -56.1 | -65.3 | |||
| 2009-05-01T00:00 | 10621 | 238 | -56.0 | -65.2 | |||
| 2009-05-01T00:00 | 10623 | 238 | -56.0 | -65.2 | |||
| 2009-05-01T00:00 | 10648 | 237 | -56.3 | -65.5 | |||
| 2009-05-01T00:00 | 10660 | 236 | -56.2 | -65.4 | |||
| 2009-05-01T00:00 | 10672 | 236 | -56.2 | -65.4 | |||
| 2009-05-01T00:00 | 10695 | 235 | -56.4 | -65.6 | |||
| 2009-05-01T00:00 | 10704 | 235 | -56.3 | -65.5 | |||
| 2009-05-01T00:00 | 10707 | 235 | -56.2 | -65.4 | |||
| 2009-05-01T00:00 | 10727 | 234 | -56.5 | -65.7 | |||
| 2009-05-01T00:00 | 10744 | 233 | -56.4 | -65.6 | |||
| 2009-05-01T00:00 | 10749 | 233 | -56.4 | -65.6 | |||
| 2009-05-01T00:00 | 10780 | 232 | -56.5 | -65.7 | |||
| 2009-05-01T00:00 | 10788 | 232 | -56.3 | -65.5 | |||
| 2009-05-01T00:00 | 10797 | 231 | -56.3 | -65.5 | |||
| 2009-05-01T00:00 | 10812 | 231 | -56.4 | -65.6 | 350 | 8 | |
| 2009-05-01T00:00 | 10816 | 231 | -56.4 | -65.6 | |||
| 2009-05-01T00:00 | 10824 | 230 | -56.3 | -65.5 | |||
| 2009-05-01T00:00 | 10827 | 230 | -56.3 | -65.5 | |||
| 2009-05-01T00:00 | 10843 | 230 | -56.6 | -65.7 | |||
| 2009-05-01T00:00 | 10854 | 229 | -56.5 | -65.7 | |||
| 2009-05-01T00:00 | 10858 | 229 | -56.5 | -65.7 | |||
| 2009-05-01T00:00 | 10883 | 228 | -56.8 | -66.0 | |||
| 2009-05-01T00:00 | 10898 | 228 | -56.8 | -66.0 | |||
| 2009-05-01T00:00 | 10903 | 228 | -56.8 | -65.9 | |||
| 2009-05-01T00:00 | 10926 | 227 | -57.1 | -66.2 | |||
| 2009-05-01T00:00 | 10940 | 226 | -57.1 | -66.2 | |||
| 2009-05-01T00:00 | 10944 | 226 | -57.1 | -66.2 | |||
| 2009-05-01T00:00 | 10964 | 225 | -57.4 | -66.5 | |||
| 2009-05-01T00:00 | 10975 | 225 | -57.3 | -66.4 | |||
| 2009-05-01T00:00 | 10981 | 225 | -57.3 | -66.4 | |||
| 2009-05-01T00:00 | 11000 | 224 | -57.4 | -66.5 | |||
| 2009-05-01T00:00 | 11012 | 224 | -57.3 | -66.4 | |||
| 2009-05-01T00:00 | 11016 | 224 | -57.4 | -66.4 | |||
| 2009-05-01T00:00 | 11037 | 223 | -57.7 | -66.7 | |||
| 2009-05-01T00:00 | 11048 | 222 | -57.6 | -66.7 | 349 | 9 | |
| 2009-05-01T00:00 | 11052 | 222 | -57.6 | -66.6 | |||
| 2009-05-01T00:00 | 11075 | 221 | -57.8 | -66.9 | |||
| 2009-05-01T00:00 | 11082 | 221 | -57.7 | -66.8 | |||
| 2009-05-01T00:00 | 11090 | 221 | -57.5 | -66.6 | |||
| 2009-05-01T00:00 | 11110 | 220 | -57.5 | -66.5 | |||
| 2009-05-01T00:00 | 11124 | 220 | -57.2 | -66.3 | |||
| 2009-05-01T00:00 | 11129 | 220 | -57.1 | -66.2 | |||
| 2009-05-01T00:00 | 11150 | 219 | -57.2 | -66.3 | |||
| 2009-05-01T00:00 | 11161 | 218 | -57.0 | -66.1 | |||
| 2009-05-01T00:00 | 11165 | 218 | -56.9 | -66.0 | |||
| 2009-05-01T00:00 | 11188 | 218 | -56.8 | -65.9 | |||
| 2009-05-01T00:00 | 11197 | 217 | -56.6 | -65.8 | |||
| 2009-05-01T00:00 | 11206 | 217 | -56.6 | -65.8 | |||
| 2009-05-01T00:00 | 11228 | 216 | -56.9 | -66.0 | |||
| 2009-05-01T00:00 | 11242 | 216 | -56.8 | -66.0 | |||
| 2009-05-01T00:00 | 11247 | 216 | -56.8 | -65.9 | |||
| 2009-05-01T00:00 | 11266 | 215 | -56.9 | -66.1 | |||
| 2009-05-01T00:00 | 11274 | 215 | -56.8 | -65.9 | |||
| 2009-05-01T00:00 | 11280 | 214 | -56.7 | -65.8 | |||
| 2009-05-01T00:00 | 11286 | 214 | -56.6 | -65.8 | 349 | 7 | |
| 2009-05-01T00:00 | 11296 | 214 | -56.5 | -65.7 | |||
| 2009-05-01T00:00 | 11309 | 213 | -56.1 | -65.3 | |||
| 2009-05-01T00:00 | 11313 | 213 | -55.9 | -65.1 | |||
| 2009-05-01T00:00 | 11332 | 213 | -55.9 | -65.1 | |||
| 2009-05-01T00:00 | 11343 | 212 | -55.7 | -64.9 | |||
| 2009-05-01T00:00 | 11347 | 212 | -55.7 | -64.9 | |||
| 2009-05-01T00:00 | 11367 | 211 | -55.8 | -65.1 | |||
| 2009-05-01T00:00 | 11382 | 211 | -55.7 | -65.0 | |||
| 2009-05-01T00:00 | 11391 | 211 | -55.7 | -64.9 | |||
| 2009-05-01T00:00 | 11411 | 210 | -55.5 | -64.8 | |||
| 2009-05-01T00:00 | 11420 | 210 | -54.9 | -64.2 | |||
| 2009-05-01T00:00 | 11423 | 210 | -54.7 | -64.1 | |||
| 2009-05-01T00:00 | 11446 | 209 | -54.8 | -64.1 | |||
| 2009-05-01T00:00 | 11468 | 208 | -54.7 | -64.1 | |||
| 2009-05-01T00:00 | 11475 | 208 | -54.7 | -64.0 | |||
| 2009-05-01T00:00 | 11506 | 207 | -55.0 | -64.3 | |||
| 2009-05-01T00:00 | 11519 | 206 | -54.8 | -64.2 | |||
| 2009-05-01T00:00 | 11524 | 206 | -54.9 | -64.2 | |||
| 2009-05-01T00:00 | 11550 | 205 | -54.7 | -64.1 | |||
| 2009-05-01T00:00 | 11555 | 205 | -54.7 | -64.0 | 341 | 7 | |
| 2009-05-01T00:00 | 11559 | 205 | -54.6 | -64.0 | |||
| 2009-05-01T00:00 | 11569 | 205 | -54.4 | -63.8 | |||
| 2009-05-01T00:00 | 11589 | 204 | -54.8 | -64.1 | |||
| 2009-05-01T00:00 | 11599 | 204 | -54.7 | -64.1 | |||
| 2009-05-01T00:00 | 11603 | 204 | -54.6 | -64.0 | |||
| 2009-05-01T00:00 | 11620 | 203 | -54.9 | -64.2 | |||
| 2009-05-01T00:00 | 11631 | 203 | -54.7 | -64.1 | |||
| 2009-05-01T00:00 | 11634 | 203 | -54.6 | -64.0 | |||
| 2009-05-01T00:00 | 11656 | 202 | -54.8 | -64.1 | |||
| 2009-05-01T00:00 | 11663 | 202 | -54.6 | -64.0 | |||
| 2009-05-01T00:00 | 11670 | 202 | -54.6 | -64.0 | |||
| 2009-05-01T00:00 | 11689 | 201 | -54.6 | -64.0 | |||
| 2009-05-01T00:00 | 11701 | 201 | -54.0 | -63.4 | |||
| 2009-05-01T00:00 | 11705 | 201 | -53.8 | -63.3 | |||
| 2009-05-01T00:00 | 11723 | 200 | -53.8 | -63.3 | |||
| 2009-05-01T00:00 | 11727 | 200 | -53.8 | ||||
| 2009-05-01T00:00 | 11743 | 199 | -53.5 | ||||
| 2009-05-01T00:00 | 11748 | 199 | -53.5 | ||||
| 2009-05-01T00:00 | 11773 | 198 | -53.5 | ||||
| 2009-05-01T00:00 | 11786 | 198 | -53.2 | ||||
| 2009-05-01T00:00 | 11791 | 198 | -53.2 | ||||
| 2009-05-01T00:00 | 11799 | 198 | -53.3 | 358 | 6 | ||
| 2009-05-01T00:00 | 11816 | 197 | -53.5 | ||||
| 2009-05-01T00:00 | 11824 | 197 | -53.5 | ||||
| 2009-05-01T00:00 | 11832 | 197 | -53.5 | ||||
| 2009-05-01T00:00 | 11854 | 196 | -53.8 | ||||
| 2009-05-01T00:00 | 11869 | 196 | -53.8 | ||||
| 2009-05-01T00:00 | 11874 | 195 | -53.8 | ||||
| 2009-05-01T00:00 | 11898 | 195 | -54.2 | ||||
| 2009-05-01T00:00 | 11911 | 194 | -54.2 | ||||
| 2009-05-01T00:00 | 11915 | 194 | -54.2 | ||||
| 2009-05-01T00:00 | 11936 | 193 | -54.5 | ||||
| 2009-05-01T00:00 | 11949 | 193 | -54.2 | ||||
| 2009-05-01T00:00 | 11957 | 193 | -54.1 | ||||
| 2009-05-01T00:00 | 11975 | 192 | -54.2 | ||||
| 2009-05-01T00:00 | 11983 | 192 | -54.0 | ||||
| 2009-05-01T00:00 | 11986 | 192 | -54.0 | ||||
| 2009-05-01T00:00 | 12003 | 191 | -54.1 | ||||
| 2009-05-01T00:00 | 12016 | 191 | -53.8 | ||||
| 2009-05-01T00:00 | 12020 | 191 | -53.8 | ||||
| 2009-05-01T00:00 | 12045 | 190 | -53.7 | ||||
| 2009-05-01T00:00 | 12051 | 190 | -53.7 | 326 | 3 | ||
| 2009-05-01T00:00 | 12063 | 190 | -53.7 | ||||
| 2009-05-01T00:00 | 12069 | 190 | -53.6 | ||||
| 2009-05-01T00:00 | 12104 | 188 | -53.2 | ||||
| 2009-05-01T00:00 | 12115 | 188 | -53.1 | ||||
| 2009-05-01T00:00 | 12127 | 188 | -53.0 | ||||
| 2009-05-01T00:00 | 12151 | 187 | -53.4 | ||||
| 2009-05-01T00:00 | 12162 | 187 | -53.4 | ||||
| 2009-05-01T00:00 | 12166 | 187 | -53.4 | ||||
| 2009-05-01T00:00 | 12185 | 186 | -53.8 | ||||
| 2009-05-01T00:00 | 12198 | 186 | -53.7 | ||||
| 2009-05-01T00:00 | 12202 | 186 | -53.7 | ||||
| 2009-05-01T00:00 | 12220 | 185 | -54.0 | ||||
| 2009-05-01T00:00 | 12230 | 185 | -54.0 | ||||
| 2009-05-01T00:00 | 12234 | 185 | -54.0 | ||||
| 2009-05-01T00:00 | 12256 | 184 | -54.3 | ||||
| 2009-05-01T00:00 | 12264 | 184 | -54.2 | ||||
| 2009-05-01T00:00 | 12272 | 184 | -54.2 | ||||
| 2009-05-01T00:00 | 12291 | 183 | -54.4 | ||||
| 2009-05-01T00:00 | 12302 | 183 | -54.3 | ||||
| 2009-05-01T00:00 | 12306 | 183 | -54.3 | ||||
| 2009-05-01T00:00 | 12310 | 183 | -54.3 | 338 | 6 | ||
| 2009-05-01T00:00 | 12326 | 182 | -54.5 | ||||
| 2009-05-01T00:00 | 12341 | 182 | -54.5 | ||||
| 2009-05-01T00:00 | 12346 | 182 | -54.4 | ||||
| 2009-05-01T00:00 | 12368 | 181 | -54.4 | ||||
| 2009-05-01T00:00 | 12378 | 181 | -54.2 | ||||
| 2009-05-01T00:00 | 12381 | 181 | -54.1 | ||||
| 2009-05-01T00:00 | 12405 | 180 | -54.1 | ||||
| 2009-05-01T00:00 | 12415 | 180 | -53.9 | ||||
| 2009-05-01T00:00 | 12426 | 179 | -53.9 | ||||
| 2009-05-01T00:00 | 12448 | 179 | -53.5 | ||||
| 2009-05-01T00:00 | 12459 | 178 | -52.8 | ||||
| 2009-05-01T00:00 | 12463 | 178 | -52.6 | ||||
| 2009-05-01T00:00 | 12484 | 178 | -52.3 | ||||
| 2009-05-01T00:00 | 12502 | 177 | -52.0 | ||||
| 2009-05-01T00:00 | 12507 | 177 | -52.0 | ||||
| 2009-05-01T00:00 | 12530 | 176 | -52.3 | ||||
| 2009-05-01T00:00 | 12539 | 176 | -52.2 | ||||
| 2009-05-01T00:00 | 12541 | 176 | -52.2 | ||||
| 2009-05-01T00:00 | 12559 | 176 | -52.5 | 336 | 9 | ||
| 2009-05-01T00:00 | 12565 | 175 | -52.4 | ||||
| 2009-05-01T00:00 | 12572 | 175 | -52.3 | ||||
| 2009-05-01T00:00 | 12589 | 175 | -52.6 | ||||
| 2009-05-01T00:00 | 12601 | 174 | -52.5 | ||||
| 2009-05-01T00:00 | 12605 | 174 | -52.5 | ||||
| 2009-05-01T00:00 | 12624 | 174 | -52.8 | ||||
| 2009-05-01T00:00 | 12634 | 174 | -52.8 | ||||
| 2009-05-01T00:00 | 12638 | 173 | -52.8 | ||||
| 2009-05-01T00:00 | 12659 | 173 | -53.0 | ||||
| 2009-05-01T00:00 | 12675 | 172 | -52.9 | ||||
| 2009-05-01T00:00 | 12680 | 172 | -52.8 | ||||
| 2009-05-01T00:00 | 12705 | 172 | -52.9 | ||||
| 2009-05-01T00:00 | 12719 | 171 | -52.7 | ||||
| 2009-05-01T00:00 | 12728 | 171 | -52.5 | ||||
| 2009-05-01T00:00 | 12749 | 171 | -52.7 | ||||
| 2009-05-01T00:00 | 12757 | 170 | -52.5 | ||||
| 2009-05-01T00:00 | 12764 | 170 | -52.4 | ||||
| 2009-05-01T00:00 | 12783 | 170 | -52.2 | ||||
| 2009-05-01T00:00 | 12793 | 169 | -51.8 | ||||
| 2009-05-01T00:00 | 12797 | 169 | -51.7 | ||||
| 2009-05-01T00:00 | 12800 | 169 | -51.7 | 343 | 8 | ||
| 2009-05-01T00:00 | 12816 | 169 | -51.8 | ||||
| 2009-05-01T00:00 | 12831 | 168 | -51.7 | ||||
| 2009-05-01T00:00 | 12835 | 168 | -51.7 | ||||
| 2009-05-01T00:00 | 12858 | 168 | -52.0 | ||||
| 2009-05-01T00:00 | 12871 | 167 | -51.9 | ||||
| 2009-05-01T00:00 | 12875 | 167 | -51.9 | ||||
| 2009-05-01T00:00 | 12900 | 167 | -52.0 | ||||
| 2009-05-01T00:00 | 12909 | 166 | -51.9 | ||||
| 2009-05-01T00:00 | 12918 | 166 | -52.0 | ||||
| 2009-05-01T00:00 | 12938 | 166 | -52.0 | ||||
| 2009-05-01T00:00 | 12946 | 165 | -51.8 | ||||
| 2009-05-01T00:00 | 12953 | 165 | -51.8 | ||||
| 2009-05-01T00:00 | 12975 | 165 | -51.8 | ||||
| 2009-05-01T00:00 | 12990 | 164 | -51.6 | ||||
| 2009-05-01T00:00 | 12995 | 164 | -51.6 | ||||
| 2009-05-01T00:00 | 13018 | 164 | -51.8 | ||||
| 2009-05-01T00:00 | 13031 | 163 | -51.7 | ||||
| 2009-05-01T00:00 | 13035 | 163 | -51.7 | ||||
| 2009-05-01T00:00 | 13056 | 163 | -51.9 | ||||
| 2009-05-01T00:00 | 13060 | 163 | -51.8 | 348 | 8 | ||
| 2009-05-01T00:00 | 13068 | 162 | -51.8 | ||||
| 2009-05-01T00:00 | 13073 | 162 | -51.7 | ||||
| 2009-05-01T00:00 | 13096 | 162 | -51.9 | ||||
| 2009-05-01T00:00 | 13104 | 161 | -51.7 | ||||
| 2009-05-01T00:00 | 13112 | 161 | -51.8 | ||||
| 2009-05-01T00:00 | 13127 | 161 | -52.0 | ||||
| 2009-05-01T00:00 | 13132 | 161 | -51.9 | ||||
| 2009-05-01T00:00 | 13136 | 161 | -52.0 | ||||
| 2009-05-01T00:00 | 13155 | 160 | -52.0 | ||||
| 2009-05-01T00:00 | 13174 | 160 | -52.0 | ||||
| 2009-05-01T00:00 | 13180 | 160 | -51.9 | ||||
| 2009-05-01T00:00 | 13204 | 159 | -52.1 | ||||
| 2009-05-01T00:00 | 13212 | 159 | -51.9 | ||||
| 2009-05-01T00:00 | 13215 | 159 | -51.9 | ||||
| 2009-05-01T00:00 | 13231 | 158 | -51.9 | ||||
| 2009-05-01T00:00 | 13243 | 158 | -51.7 | ||||
| 2009-05-01T00:00 | 13246 | 158 | -51.7 | ||||
| 2009-05-01T00:00 | 13268 | 157 | -52.0 | ||||
| 2009-05-01T00:00 | 13284 | 157 | -51.8 | ||||
| 2009-05-01T00:00 | 13289 | 157 | -51.8 | ||||
| 2009-05-01T00:00 | 13298 | 157 | -51.9 | 329 | 7 | ||
| 2009-05-01T00:00 | 13316 | 156 | -52.1 | ||||
| 2009-05-01T00:00 | 13321 | 156 | -52.1 | ||||
| 2009-05-01T00:00 | 13326 | 156 | -52.1 | ||||
| 2009-05-01T00:00 | 13343 | 156 | -52.3 | ||||
| 2009-05-01T00:00 | 13356 | 155 | -52.1 | ||||
| 2009-05-01T00:00 | 13360 | 155 | -52.0 | ||||
| 2009-05-01T00:00 | 13381 | 155 | -52.3 | ||||
| 2009-05-01T00:00 | 13393 | 154 | -52.2 | ||||
| 2009-05-01T00:00 | 13398 | 154 | -52.0 | ||||
| 2009-05-01T00:00 | 13419 | 154 | -52.1 | ||||
| 2009-05-01T00:00 | 13433 | 153 | -51.9 | ||||
| 2009-05-01T00:00 | 13437 | 153 | -51.9 | ||||
| 2009-05-01T00:00 | 13455 | 153 | -52.2 | ||||
| 2009-05-01T00:00 | 13462 | 153 | -52.0 | ||||
| 2009-05-01T00:00 | 13464 | 153 | -52.0 | ||||
| 2009-05-01T00:00 | 13480 | 152 | -52.2 | ||||
| 2009-05-01T00:00 | 13487 | 152 | -52.0 | ||||
| 2009-05-01T00:00 | 13494 | 152 | -52.0 | ||||
| 2009-05-01T00:00 | 13513 | 152 | -52.1 | ||||
| 2009-05-01T00:00 | 13517 | 151 | -52.0 | 330 | 7 | ||
| 2009-05-01T00:00 | 13526 | 151 | -51.8 | ||||
| 2009-05-01T00:00 | 13530 | 151 | -51.7 | ||||
| 2009-05-01T00:00 | 13553 | 151 | -51.9 | ||||
| 2009-05-01T00:00 | 13569 | 150 | -51.7 | ||||
| 2009-05-01T00:00 | 13574 | 150 | -51.7 | ||||
| 2009-05-01T00:00 | 13579 | 150 | -51.7 | ||||
| 2009-05-01T00:00 | 13600 | 150 | -51.8 | ||||
| 2009-05-01T00:00 | 13615 | 149 | -51.6 | ||||
| 2009-05-01T00:00 | 13620 | 149 | -51.5 | ||||
| 2009-05-01T00:00 | 13641 | 149 | -51.5 | ||||
| 2009-05-01T00:00 | 13652 | 148 | -51.5 | ||||
| 2009-05-01T00:00 | 13655 | 148 | -51.4 | ||||
| 2009-05-01T00:00 | 13677 | 148 | -51.8 | ||||
| 2009-05-01T00:00 | 13684 | 148 | -51.8 | ||||
| 2009-05-01T00:00 | 13692 | 147 | -51.8 | ||||
| 2009-05-01T00:00 | 13712 | 147 | -52.2 | ||||
| 2009-05-01T00:00 | 13720 | 147 | -52.2 | ||||
| 2009-05-01T00:00 | 13729 | 147 | -52.2 | ||||
| 2009-05-01T00:00 | 13749 | 146 | -52.5 | ||||
| 2009-05-01T00:00 | 13760 | 146 | -52.5 | ||||
| 2009-05-01T00:00 | 13763 | 146 | -52.4 | ||||
| 2009-05-01T00:00 | 13771 | 146 | -52.5 | 339 | 9 | ||
| 2009-05-01T00:00 | 13783 | 145 | -52.7 | ||||
| 2009-05-01T00:00 | 13795 | 145 | -52.5 | ||||
| 2009-05-01T00:00 | 13799 | 145 | -52.2 | ||||
| 2009-05-01T00:00 | 13822 | 144 | -52.0 | ||||
| 2009-05-01T00:00 | 13838 | 144 | -51.8 | ||||
| 2009-05-01T00:00 | 13843 | 144 | -51.8 | ||||
| 2009-05-01T00:00 | 13865 | 144 | -52.0 | ||||
| 2009-05-01T00:00 | 13875 | 143 | -51.9 | ||||
| 2009-05-01T00:00 | 13878 | 143 | -51.9 | ||||
| 2009-05-01T00:00 | 13902 | 143 | -51.9 | ||||
| 2009-05-01T00:00 | 13914 | 142 | -51.4 | ||||
| 2009-05-01T00:00 | 13925 | 142 | -51.3 | ||||
| 2009-05-01T00:00 | 13947 | 142 | -51.4 | ||||
| 2009-05-01T00:00 | 13954 | 142 | -51.3 | ||||
| 2009-05-01T00:00 | 13956 | 142 | -51.3 | ||||
| 2009-05-01T00:00 | 13977 | 141 | -51.6 | ||||
| 2009-05-01T00:00 | 13997 | 141 | -51.6 | ||||
| 2009-05-01T00:00 | 14004 | 140 | -51.6 | ||||
| 2009-05-01T00:00 | 14032 | 140 | -51.9 | ||||
| 2009-05-01T00:00 | 14039 | 140 | -51.9 | 350 | 8 | ||
| 2009-05-01T00:00 | 14042 | 140 | -51.9 | ||||
| 2009-05-01T00:00 | 14046 | 140 | -51.9 | ||||
| 2009-05-01T00:00 | 14068 | 139 | -52.3 | ||||
| 2009-05-01T00:00 | 14086 | 139 | -52.2 | ||||
| 2009-05-01T00:00 | 14092 | 139 | -52.2 | ||||
| 2009-05-01T00:00 | 14121 | 138 | -52.5 | ||||
| 2009-05-01T00:00 | 14129 | 138 | -52.2 | ||||
| 2009-05-01T00:00 | 14136 | 138 | -52.2 | ||||
| 2009-05-01T00:00 | 14157 | 137 | -52.3 | ||||
| 2009-05-01T00:00 | 14167 | 137 | -52.2 | ||||
| 2009-05-01T00:00 | 14177 | 137 | -52.2 | ||||
| 2009-05-01T00:00 | 14198 | 136 | -52.4 | ||||
| 2009-05-01T00:00 | 14208 | 136 | -52.2 | ||||
| 2009-05-01T00:00 | 14211 | 136 | -52.2 | ||||
| 2009-05-01T00:00 | 14233 | 136 | -52.2 | ||||
| 2009-05-01T00:00 | 14250 | 135 | -52.0 | ||||
| 2009-05-01T00:00 | 14256 | 135 | -52.0 | ||||
| 2009-05-01T00:00 | 14280 | 135 | -52.4 | ||||
| 2009-05-01T00:00 | 14289 | 134 | -52.3 | ||||
| 2009-05-01T00:00 | 14293 | 134 | -52.3 | ||||
| 2009-05-01T00:00 | 14304 | 134 | -52.5 | 341 | 7 | ||
| 2009-05-01T00:00 | 14312 | 134 | -52.6 | ||||
| 2009-05-01T00:00 | 14328 | 134 | -52.5 | ||||
| 2009-05-01T00:00 | 14333 | 134 | -52.5 | ||||
| 2009-05-01T00:00 | 14359 | 133 | -52.6 | ||||
| 2009-05-01T00:00 | 14366 | 133 | -52.5 | ||||
| 2009-05-01T00:00 | 14374 | 133 | -52.4 | ||||
| 2009-05-01T00:00 | 14392 | 132 | -52.6 | ||||
| 2009-05-01T00:00 | 14404 | 132 | -52.5 | ||||
| 2009-05-01T00:00 | 14408 | 132 | -52.5 | ||||
| 2009-05-01T00:00 | 14428 | 132 | -52.7 | ||||
| 2009-05-01T00:00 | 14440 | 131 | -52.6 | ||||
| 2009-05-01T00:00 | 14444 | 131 | -52.6 | ||||
| 2009-05-01T00:00 | 14463 | 131 | -52.8 | ||||
| 2009-05-01T00:00 | 14474 | 131 | -52.7 | ||||
| 2009-05-01T00:00 | 14477 | 131 | -52.7 | ||||
| 2009-05-01T00:00 | 14499 | 130 | -53.0 | ||||
| 2009-05-01T00:00 | 14514 | 130 | -52.9 | ||||
| 2009-05-01T00:00 | 14520 | 130 | -52.8 | ||||
| 2009-05-01T00:00 | 14541 | 129 | -53.0 | ||||
| 2009-05-01T00:00 | 14551 | 129 | -52.9 | 327 | 7 | ||
| 2009-05-01T00:00 | 14554 | 129 | -52.8 | ||||
| 2009-05-01T00:00 | 14576 | 129 | -53.0 | ||||
| 2009-05-01T00:00 | 14586 | 128 | -52.7 | ||||
| 2009-05-01T00:00 | 14596 | 128 | -52.6 | ||||
| 2009-05-01T00:00 | 14622 | 128 | -52.8 | ||||
| 2009-05-01T00:00 | 14637 | 127 | -52.7 | ||||
| 2009-05-01T00:00 | 14642 | 127 | -52.7 | ||||
| 2009-05-01T00:00 | 14666 | 127 | -52.8 | ||||
| 2009-05-01T00:00 | 14679 | 127 | -52.7 | ||||
| 2009-05-01T00:00 | 14683 | 126 | -52.7 | ||||
| 2009-05-01T00:00 | 14702 | 126 | -52.9 | ||||
| 2009-05-01T00:00 | 14711 | 126 | -52.8 | ||||
| 2009-05-01T00:00 | 14714 | 126 | -52.8 | ||||
| 2009-05-01T00:00 | 14732 | 126 | -53.1 | ||||
| 2009-05-01T00:00 | 14744 | 125 | -53.0 | ||||
| 2009-05-01T00:00 | 14748 | 125 | -53.0 | ||||
| 2009-05-01T00:00 | 14776 | 125 | -53.4 | ||||
| 2009-05-01T00:00 | 14786 | 124 | -53.4 | ||||
| 2009-05-01T00:00 | 14796 | 124 | -53.3 | ||||
| 2009-05-01T00:00 | 14809 | 124 | -53.4 | 320 | 9 | ||
| 2009-05-01T00:00 | 14818 | 124 | -53.5 | ||||
| 2009-05-01T00:00 | 14825 | 124 | -53.4 | ||||
| 2009-05-01T00:00 | 14831 | 124 | -53.4 | ||||
| 2009-05-01T00:00 | 14848 | 123 | -53.6 | ||||
| 2009-05-01T00:00 | 14858 | 123 | -53.5 | ||||
| 2009-05-01T00:00 | 14861 | 123 | -53.5 | ||||
| 2009-05-01T00:00 | 14878 | 123 | -53.6 | ||||
| 2009-05-01T00:00 | 14890 | 122 | -53.4 | ||||
| 2009-05-01T00:00 | 14894 | 122 | -53.5 | ||||
| 2009-05-01T00:00 | 14914 | 122 | -53.7 | ||||
| 2009-05-01T00:00 | 14927 | 122 | -53.4 | ||||
| 2009-05-01T00:00 | 14931 | 122 | -53.4 | ||||
| 2009-05-01T00:00 | 14950 | 121 | -53.6 | ||||
| 2009-05-01T00:00 | 14959 | 121 | -53.5 | ||||
| 2009-05-01T00:00 | 14962 | 121 | -53.5 | ||||
| 2009-05-01T00:00 | 14986 | 121 | -53.5 | ||||
| 2009-05-01T00:00 | 14998 | 120 | -53.4 | ||||
| 2009-05-01T00:00 | 15009 | 120 | -53.4 | ||||
| 2009-05-01T00:00 | 15033 | 120 | -53.4 | ||||
| 2009-05-01T00:00 | 15043 | 120 | -53.3 | 324 | 9 | ||
| 2009-05-01T00:00 | 15046 | 120 | -53.3 | ||||
| 2009-05-01T00:00 | 15065 | 119 | -53.4 | ||||
| 2009-05-01T00:00 | 15078 | 119 | -53.2 | ||||
| 2009-05-01T00:00 | 15082 | 119 | -53.2 | ||||
| 2009-05-01T00:00 | 15106 | 118 | -53.3 | ||||
| 2009-05-01T00:00 | 15123 | 118 | -53.3 | ||||
| 2009-05-01T00:00 | 15128 | 118 | -53.3 | ||||
| 2009-05-01T00:00 | 15154 | 118 | -53.6 | ||||
| 2009-05-01T00:00 | 15168 | 117 | -53.5 | ||||
| 2009-05-01T00:00 | 15173 | 117 | -53.5 | ||||
| 2009-05-01T00:00 | 15199 | 117 | -53.7 | ||||
| 2009-05-01T00:00 | 15208 | 117 | -53.6 | ||||
| 2009-05-01T00:00 | 15216 | 116 | -53.6 | ||||
| 2009-05-01T00:00 | 15238 | 116 | -53.9 | ||||
| 2009-05-01T00:00 | 15247 | 116 | -53.8 | ||||
| 2009-05-01T00:00 | 15256 | 116 | -53.8 | ||||
| 2009-05-01T00:00 | 15278 | 115 | -54.1 | ||||
| 2009-05-01T00:00 | 15291 | 115 | -54.0 | ||||
| 2009-05-01T00:00 | 15295 | 115 | -54.0 | ||||
| 2009-05-01T00:00 | 15314 | 115 | -54.1 | 333 | 9 | ||
| 2009-05-01T00:00 | 15318 | 115 | -54.2 | ||||
| 2009-05-01T00:00 | 15334 | 114 | -54.1 | ||||
| 2009-05-01T00:00 | 15339 | 114 | -54.1 | ||||
| 2009-05-01T00:00 | 15363 | 114 | -54.3 | ||||
| 2009-05-01T00:00 | 15376 | 114 | -54.0 | ||||
| 2009-05-01T00:00 | 15380 | 113 | -54.0 | ||||
| 2009-05-01T00:00 | 15401 | 113 | -54.2 | ||||
| 2009-05-01T00:00 | 15413 | 113 | -54.1 | ||||
| 2009-05-01T00:00 | 15417 | 113 | -54.1 | ||||
| 2009-05-01T00:00 | 15442 | 112 | -54.4 | ||||
| 2009-05-01T00:00 | 15452 | 112 | -54.3 | ||||
| 2009-05-01T00:00 | 15461 | 112 | -54.2 | ||||
| 2009-05-01T00:00 | 15483 | 112 | -54.3 | ||||
| 2009-05-01T00:00 | 15494 | 111 | -54.2 | ||||
| 2009-05-01T00:00 | 15497 | 111 | -54.2 | ||||
| 2009-05-01T00:00 | 15520 | 111 | -54.3 | ||||
| 2009-05-01T00:00 | 15537 | 111 | -54.2 | ||||
| 2009-05-01T00:00 | 15543 | 111 | -54.2 | ||||
| 2009-05-01T00:00 | 15567 | 110 | -54.3 | ||||
| 2009-05-01T00:00 | 15579 | 110 | -54.2 | ||||
| 2009-05-01T00:00 | 15583 | 110 | -54.2 | 340 | 9 | ||
| 2009-05-01T00:00 | 15605 | 110 | -54.3 | ||||
| 2009-05-01T00:00 | 15621 | 109 | -54.2 | ||||
| 2009-05-01T00:00 | 15627 | 109 | -54.2 | ||||
| 2009-05-01T00:00 | 15653 | 109 | -54.3 | ||||
| 2009-05-01T00:00 | 15660 | 109 | -54.3 | ||||
| 2009-05-01T00:00 | 15667 | 108 | -54.2 | ||||
| 2009-05-01T00:00 | 15684 | 108 | -54.3 | ||||
| 2009-05-01T00:00 | 15693 | 108 | -54.1 | ||||
| 2009-05-01T00:00 | 15697 | 108 | -54.1 | ||||
| 2009-05-01T00:00 | 15716 | 108 | -54.2 | ||||
| 2009-05-01T00:00 | 15732 | 107 | -54.1 | ||||
| 2009-05-01T00:00 | 15737 | 107 | -54.0 | ||||
| 2009-05-01T00:00 | 15760 | 107 | -54.0 | ||||
| 2009-05-01T00:00 | 15772 | 107 | -54.0 | ||||
| 2009-05-01T00:00 | 15775 | 107 | -54.0 | ||||
| 2009-05-01T00:00 | 15798 | 106 | -54.3 | ||||
| 2009-05-01T00:00 | 15814 | 106 | -54.2 | ||||
| 2009-05-01T00:00 | 15819 | 106 | -54.2 | ||||
| 2009-05-01T00:00 | 15842 | 106 | -54.6 | 348 | 8 | ||
| 2009-05-01T00:00 | 15851 | 105 | -54.5 | ||||
| 2009-05-01T00:00 | 15854 | 105 | -54.6 | ||||
| 2009-05-01T00:00 | 15874 | 105 | -54.9 | ||||
| 2009-05-01T00:00 | 15882 | 105 | -54.8 | ||||
| 2009-05-01T00:00 | 15890 | 105 | -54.9 | ||||
| 2009-05-01T00:00 | 15910 | 104 | -55.1 | ||||
| 2009-05-01T00:00 | 15923 | 104 | -55.1 | ||||
| 2009-05-01T00:00 | 15927 | 104 | -55.0 | ||||
| 2009-05-01T00:00 | 15950 | 104 | -55.3 | ||||
| 2009-05-01T00:00 | 15966 | 104 | -55.1 | ||||
| 2009-05-01T00:00 | 15971 | 103 | -55.1 | ||||
| 2009-05-01T00:00 | 15994 | 103 | -55.3 | ||||
| 2009-05-01T00:00 | 16005 | 103 | -55.3 | ||||
| 2009-05-01T00:00 | 16008 | 103 | -55.3 | ||||
| 2009-05-01T00:00 | 16030 | 103 | -55.6 | ||||
| 2009-05-01T00:00 | 16047 | 102 | -55.5 | ||||
| 2009-05-01T00:00 | 16053 | 102 | -55.5 | ||||
| 2009-05-01T00:00 | 16079 | 102 | -55.8 | ||||
| 2009-05-01T00:00 | 16084 | 102 | -55.7 | ||||
| 2009-05-01T00:00 | 16090 | 102 | -55.7 | 353 | 7 | ||
| 2009-05-01T00:00 | 16108 | 101 | -55.8 | ||||
| 2009-05-01T00:00 | 16123 | 101 | -55.7 | ||||
| 2009-05-01T00:00 | 16128 | 101 | -55.7 | ||||
| 2009-05-01T00:00 | 16150 | 101 | -56.0 | ||||
| 2009-05-01T00:00 | 16162 | 100 | -56.0 | ||||
| 2009-05-01T00:00 | 16165 | 100 | -55.9 | ||||
| 2009-05-01T00:00 | 16187 | 100 | -56.0 | ||||
| 2009-05-01T00:00 | 16188 | 100 | -56.0 | ||||
| 2009-05-01T00:00 | 16203 | 100 | -55.9 | ||||
| 2009-05-01T00:00 | 16208 | 100 | -55.9 | ||||
| 2009-05-01T00:00 | 16229 | 99 | -56.0 | ||||
| 2009-05-01T00:00 | 16237 | 99 | -55.8 | ||||
| 2009-05-01T00:00 | 16240 | 99 | -55.8 | ||||
| 2009-05-01T00:00 | 16260 | 99 | -56.0 | ||||
| 2009-05-01T00:00 | 16269 | 99 | -56.0 | ||||
| 2009-05-01T00:00 | 16278 | 99 | -56.0 | ||||
| 2009-05-01T00:00 | 16298 | 98 | -56.1 | ||||
| 2009-05-01T00:00 | 16308 | 98 | -56.0 | ||||
| 2009-05-01T00:00 | 16311 | 98 | -56.0 | ||||
| 2009-05-01T00:00 | 16331 | 98 | -56.1 | 335 | 5 | ||
| 2009-05-01T00:00 | 16347 | 98 | -56.0 | ||||
| 2009-05-01T00:00 | 16353 | 97 | -55.9 | ||||
| 2009-05-01T00:00 | 16382 | 97 | -55.9 | ||||
| 2009-05-01T00:00 | 16401 | 97 | -55.7 | ||||
| 2009-05-01T00:00 | 16408 | 97 | -55.7 | ||||
| 2009-05-01T00:00 | 16433 | 96 | -55.8 | ||||
| 2009-05-01T00:00 | 16442 | 96 | -55.5 | ||||
| 2009-05-01T00:00 | 16444 | 96 | -55.6 | ||||
| 2009-05-01T00:00 | 16462 | 96 | -55.7 | ||||
| 2009-05-01T00:00 | 16468 | 96 | -55.7 | ||||
| 2009-05-01T00:00 | 16475 | 96 | -55.7 | ||||
| 2009-05-01T00:00 | 16493 | 95 | -55.9 | ||||
| 2009-05-01T00:00 | 16506 | 95 | -55.8 | ||||
| 2009-05-01T00:00 | 16511 | 95 | -55.7 | ||||
| 2009-05-01T00:00 | 16534 | 95 | -56.0 | ||||
| 2009-05-01T00:00 | 16548 | 94 | -55.9 | ||||
| 2009-05-01T00:00 | 16553 | 94 | -56.0 | ||||
| 2009-05-01T00:00 | 16575 | 94 | -56.2 | ||||
| 2009-05-01T00:00 | 16586 | 94 | -56.0 | ||||
| 2009-05-01T00:00 | 16590 | 94 | -56.0 | ||||
| 2009-05-01T00:00 | 16594 | 94 | -56.1 | 321 | 6 | ||
| 2009-05-01T00:00 | 16610 | 94 | -56.2 | ||||
| 2009-05-01T00:00 | 16625 | 93 | -56.1 | ||||
| 2009-05-01T00:00 | 16629 | 93 | -56.1 | ||||
| 2009-05-01T00:00 | 16653 | 93 | -56.2 | ||||
| 2009-05-01T00:00 | 16658 | 93 | -56.1 | ||||
| 2009-05-01T00:00 | 16664 | 93 | -56.1 | ||||
| 2009-05-01T00:00 | 16686 | 92 | -56.3 | ||||
| 2009-05-01T00:00 | 16700 | 92 | -56.2 | ||||
| 2009-05-01T00:00 | 16714 | 92 | -56.1 | ||||
| 2009-05-01T00:00 | 16742 | 92 | -56.2 | ||||
| 2009-05-01T00:00 | 16752 | 92 | -55.9 | ||||
| 2009-05-01T00:00 | 16756 | 91 | -55.9 | ||||
| 2009-05-01T00:00 | 16775 | 91 | -56.0 | ||||
| 2009-05-01T00:00 | 16787 | 91 | -55.9 | ||||
| 2009-05-01T00:00 | 16791 | 91 | -55.9 | ||||
| 2009-05-01T00:00 | 16812 | 91 | -56.0 | ||||
| 2009-05-01T00:00 | 16824 | 90 | -55.9 | ||||
| 2009-05-01T00:00 | 16828 | 90 | -55.9 | ||||
| 2009-05-01T00:00 | 16850 | 90 | -56.2 | ||||
| 2009-05-01T00:00 | 16855 | 90 | -56.2 | 329 | 7 | ||
| 2009-05-01T00:00 | 16865 | 90 | -56.1 | ||||
| 2009-05-01T00:00 | 16870 | 90 | -56.0 | ||||
| 2009-05-01T00:00 | 16896 | 89 | -55.9 | ||||
| 2009-05-01T00:00 | 16904 | 89 | -55.8 | ||||
| 2009-05-01T00:00 | 16912 | 89 | -55.9 | ||||
| 2009-05-01T00:00 | 16935 | 89 | -56.2 | ||||
| 2009-05-01T00:00 | 16952 | 89 | -56.0 | ||||
| 2009-05-01T00:00 | 16958 | 89 | -56.0 | ||||
| 2009-05-01T00:00 | 16985 | 88 | -56.0 | ||||
| 2009-05-01T00:00 | 16997 | 88 | -55.9 | ||||
| 2009-05-01T00:00 | 17002 | 88 | -55.9 | ||||
| 2009-05-01T00:00 | 17022 | 88 | -56.2 | ||||
| 2009-05-01T00:00 | 17033 | 88 | -56.1 | ||||
| 2009-05-01T00:00 | 17037 | 88 | -56.0 | ||||
| 2009-05-01T00:00 | 17059 | 87 | -56.0 | ||||
| 2009-05-01T00:00 | 17076 | 87 | -55.9 | ||||
| 2009-05-01T00:00 | 17082 | 87 | -55.9 | ||||
| 2009-05-01T00:00 | 17106 | 87 | -56.1 | ||||
| 2009-05-01T00:00 | 17111 | 86 | -56.0 | ||||
| 2009-05-01T00:00 | 17116 | 86 | -56.0 | ||||
| 2009-05-01T00:00 | 17119 | 86 | -56.0 | 337 | 8 | ||
| 2009-05-01T00:00 | 17134 | 86 | -56.2 | ||||
| 2009-05-01T00:00 | 17144 | 86 | -56.1 | ||||
| 2009-05-01T00:00 | 17155 | 86 | -56.0 | ||||
| 2009-05-01T00:00 | 17182 | 86 | -56.3 | ||||
| 2009-05-01T00:00 | 17199 | 85 | -56.2 | ||||
| 2009-05-01T00:00 | 17204 | 85 | -56.1 | ||||
| 2009-05-01T00:00 | 17231 | 85 | -56.2 | ||||
| 2009-05-01T00:00 | 17246 | 85 | -56.2 | ||||
| 2009-05-01T00:00 | 17251 | 85 | -56.2 | ||||
| 2009-05-01T00:00 | 17273 | 84 | -56.5 | ||||
| 2009-05-01T00:00 | 17281 | 84 | -56.4 | ||||
| 2009-05-01T00:00 | 17284 | 84 | -56.5 | ||||
| 2009-05-01T00:00 | 17303 | 84 | -56.6 | ||||
| 2009-05-01T00:00 | 17318 | 84 | -56.5 | ||||
| 2009-05-01T00:00 | 17323 | 84 | -56.4 | ||||
| 2009-05-01T00:00 | 17355 | 83 | -56.7 | ||||
| 2009-05-01T00:00 | 17368 | 83 | -56.6 | ||||
| 2009-05-01T00:00 | 17380 | 83 | -56.5 | ||||
| 2009-05-01T00:00 | 17405 | 83 | -56.5 | ||||
| 2009-05-01T00:00 | 17408 | 83 | -56.5 | 340 | 7 | ||
| 2009-05-01T00:00 | 17413 | 82 | -56.3 | ||||
| 2009-05-01T00:00 | 17415 | 82 | -56.3 | ||||
| 2009-05-01T00:00 | 17434 | 82 | -56.4 | ||||
| 2009-05-01T00:00 | 17451 | 82 | -56.3 | ||||
| 2009-05-01T00:00 | 17456 | 82 | -56.3 | ||||
| 2009-05-01T00:00 | 17483 | 82 | -56.6 | ||||
| 2009-05-01T00:00 | 17499 | 81 | -56.6 | ||||
| 2009-05-01T00:00 | 17505 | 81 | -56.6 | ||||
| 2009-05-01T00:00 | 17532 | 81 | -56.7 | ||||
| 2009-05-01T00:00 | 17548 | 81 | -56.7 | ||||
| 2009-05-01T00:00 | 17554 | 81 | -56.6 | ||||
| 2009-05-01T00:00 | 17576 | 80 | -56.8 | ||||
| 2009-05-01T00:00 | 17584 | 80 | -56.8 | ||||
| 2009-05-01T00:00 | 17590 | 80 | -56.8 | ||||
| 2009-05-01T00:00 | 17608 | 80 | -56.9 | ||||
| 2009-05-01T00:00 | 17617 | 80 | -56.7 | ||||
| 2009-05-01T00:00 | 17627 | 80 | -56.5 | ||||
| 2009-05-01T00:00 | 17649 | 79 | -56.7 | ||||
| 2009-05-01T00:00 | 17662 | 79 | -56.5 | ||||
| 2009-05-01T00:00 | 17666 | 79 | -56.5 | ||||
| 2009-05-01T00:00 | 17675 | 79 | -56.5 | 345 | 7 | ||
| 2009-05-01T00:00 | 17687 | 79 | -56.6 | ||||
| 2009-05-01T00:00 | 17700 | 79 | -56.3 | ||||
| 2009-05-01T00:00 | 17704 | 79 | -56.2 | ||||
| 2009-05-01T00:00 | 17726 | 78 | -56.5 | ||||
| 2009-05-01T00:00 | 17739 | 78 | -56.4 | ||||
| 2009-05-01T00:00 | 17744 | 78 | -56.4 | ||||
| 2009-05-01T00:00 | 17767 | 78 | -56.7 | ||||
| 2009-05-01T00:00 | 17780 | 78 | -56.6 | ||||
| 2009-05-01T00:00 | 17785 | 78 | -56.6 | ||||
| 2009-05-01T00:00 | 17812 | 77 | -56.8 | ||||
| 2009-05-01T00:00 | 17821 | 77 | -56.6 | ||||
| 2009-05-01T00:00 | 17830 | 77 | -56.5 | ||||
| 2009-05-01T00:00 | 17852 | 77 | -56.6 | ||||
| 2009-05-01T00:00 | 17861 | 77 | -56.6 | ||||
| 2009-05-01T00:00 | 17869 | 77 | -56.6 | ||||
| 2009-05-01T00:00 | 17889 | 76 | -56.8 | ||||
| 2009-05-01T00:00 | 17899 | 76 | -56.5 | ||||
| 2009-05-01T00:00 | 17903 | 76 | -56.5 | ||||
| 2009-05-01T00:00 | 17926 | 76 | -56.7 | ||||
| 2009-05-01T00:00 | 17939 | 76 | -56.7 | 346 | 8 | ||
| 2009-05-01T00:00 | 17946 | 76 | -56.7 | ||||
| 2009-05-01T00:00 | 17952 | 76 | -56.7 | ||||
| 2009-05-01T00:00 | 17980 | 75 | -56.9 | ||||
| 2009-05-01T00:00 | 17993 | 75 | -56.9 | ||||
| 2009-05-01T00:00 | 17997 | 75 | -56.9 | ||||
| 2009-05-01T00:00 | 18019 | 75 | -57.0 | ||||
| 2009-05-01T00:00 | 18034 | 75 | -56.9 | ||||
| 2009-05-01T00:00 | 18039 | 75 | -56.9 | ||||
| 2009-05-01T00:00 | 18059 | 74 | -57.2 | ||||
| 2009-05-01T00:00 | 18063 | 74 | -57.0 | ||||
| 2009-05-01T00:00 | 18067 | 74 | -57.0 | ||||
| 2009-05-01T00:00 | 18084 | 74 | -57.1 | ||||
| 2009-05-01T00:00 | 18095 | 74 | -57.0 | ||||
| 2009-05-01T00:00 | 18105 | 74 | -56.9 | ||||
| 2009-05-01T00:00 | 18132 | 74 | -57.0 | ||||
| 2009-05-01T00:00 | 18148 | 73 | -56.9 | ||||
| 2009-05-01T00:00 | 18153 | 73 | -56.9 | ||||
| 2009-05-01T00:00 | 18176 | 73 | -57.1 | ||||
| 2009-05-01T00:00 | 18187 | 73 | -57.0 | ||||
| 2009-05-01T00:00 | 18191 | 73 | -56.9 | ||||
| 2009-05-01T00:00 | 18202 | 73 | -57.1 | 340 | 6 | ||
| 2009-05-01T00:00 | 18210 | 73 | -57.2 | ||||
| 2009-05-01T00:00 | 18222 | 73 | -57.1 | ||||
| 2009-05-01T00:00 | 18226 | 73 | -57.2 | ||||
| 2009-05-01T00:00 | 18250 | 72 | -57.2 | ||||
| 2009-05-01T00:00 | 18267 | 72 | -57.1 | ||||
| 2009-05-01T00:00 | 18272 | 72 | -57.0 | ||||
| 2009-05-01T00:00 | 18299 | 72 | -57.1 | ||||
| 2009-05-01T00:00 | 18306 | 72 | -57.1 | ||||
| 2009-05-01T00:00 | 18313 | 72 | -57.0 | ||||
| 2009-05-01T00:00 | 18332 | 71 | -57.2 | ||||
| 2009-05-01T00:00 | 18341 | 71 | -57.1 | ||||
| 2009-05-01T00:00 | 18350 | 71 | -57.1 | ||||
| 2009-05-01T00:00 | 18373 | 71 | -57.4 | ||||
| 2009-05-01T00:00 | 18387 | 71 | -57.2 | ||||
| 2009-05-01T00:00 | 18391 | 71 | -57.0 | ||||
| 2009-05-01T00:00 | 18415 | 70 | -57.1 | ||||
| 2009-05-01T00:00 | 18431 | 70 | -57.0 | ||||
| 2009-05-01T00:00 | 18436 | 70 | -56.8 | ||||
| 2009-05-01T00:00 | 18451 | 70 | -56.9 | ||||
| 2009-05-01T00:00 | 18457 | 70 | -56.9 | ||||
| 2009-05-01T00:00 | 18464 | 70 | -56.8 | 329 | 5 | ||
| 2009-05-01T00:00 | 18466 | 70 | -56.8 | ||||
| 2009-05-01T00:00 | 18489 | 70 | -56.8 | ||||
| 2009-05-01T00:00 | 18513 | 69 | -56.7 | ||||
| 2009-05-01T00:00 | 18520 | 69 | -56.7 | ||||
| 2009-05-01T00:00 | 18549 | 69 | -56.8 | ||||
| 2009-05-01T00:00 | 18557 | 69 | -56.7 | ||||
| 2009-05-01T00:00 | 18560 | 69 | -56.6 | ||||
| 2009-05-01T00:00 | 18581 | 69 | -56.4 | ||||
| 2009-05-01T00:00 | 18591 | 68 | -56.3 | ||||
| 2009-05-01T00:00 | 18601 | 68 | -56.3 | ||||
| 2009-05-01T00:00 | 18624 | 68 | -56.5 | ||||
| 2009-05-01T00:00 | 18634 | 68 | -56.2 | ||||
| 2009-05-01T00:00 | 18637 | 68 | -56.1 | ||||
| 2009-05-01T00:00 | 18655 | 68 | -56.1 | ||||
| 2009-05-01T00:00 | 18667 | 68 | -56.0 | ||||
| 2009-05-01T00:00 | 18671 | 68 | -56.0 | ||||
| 2009-05-01T00:00 | 18695 | 67 | -56.2 | ||||
| 2009-05-01T00:00 | 18713 | 67 | -56.0 | ||||
| 2009-05-01T00:00 | 18719 | 67 | -56.0 | ||||
| 2009-05-01T00:00 | 18739 | 67 | -56.1 | 327 | 5 | ||
| 2009-05-01T00:00 | 18744 | 67 | -56.1 | ||||
| 2009-05-01T00:00 | 18755 | 67 | -56.0 | ||||
| 2009-05-01T00:00 | 18758 | 67 | -55.9 | ||||
| 2009-05-01T00:00 | 18772 | 67 | -56.0 | ||||
| 2009-05-01T00:00 | 18778 | 66 | -56.0 | ||||
| 2009-05-01T00:00 | 18780 | 66 | -56.0 | ||||
| 2009-05-01T00:00 | 18799 | 66 | -56.3 | ||||
| 2009-05-01T00:00 | 18820 | 66 | -56.2 | ||||
| 2009-05-01T00:00 | 18827 | 66 | -56.3 | ||||
| 2009-05-01T00:00 | 18855 | 66 | -56.6 | ||||
| 2009-05-01T00:00 | 18860 | 66 | -56.5 | ||||
| 2009-05-01T00:00 | 18866 | 66 | -56.5 | ||||
| 2009-05-01T00:00 | 18885 | 65 | -56.7 | ||||
| 2009-05-01T00:00 | 18897 | 65 | -56.6 | ||||
| 2009-05-01T00:00 | 18908 | 65 | -56.5 | ||||
| 2009-05-01T00:00 | 18936 | 65 | -56.8 | ||||
| 2009-05-01T00:00 | 18950 | 65 | -56.7 | ||||
| 2009-05-01T00:00 | 18955 | 65 | -56.7 | ||||
| 2009-05-01T00:00 | 18980 | 64 | -57.0 | ||||
| 2009-05-01T00:00 | 18995 | 64 | -56.8 | ||||
| 2009-05-01T00:00 | 19000 | 64 | -56.8 | 333 | 5 | ||
| 2009-05-01T00:00 | 19020 | 64 | -56.9 | ||||
| 2009-05-01T00:00 | 19028 | 64 | -56.8 | ||||
| 2009-05-01T00:00 | 19031 | 64 | -56.8 | ||||
| 2009-05-01T00:00 | 19054 | 64 | -57.0 | ||||
| 2009-05-01T00:00 | 19076 | 63 | -56.9 | ||||
| 2009-05-01T00:00 | 19084 | 63 | -57.0 | ||||
| 2009-05-01T00:00 | 19110 | 63 | -57.0 | ||||
| 2009-05-01T00:00 | 19115 | 63 | -56.8 | ||||
| 2009-05-01T00:00 | 19117 | 63 | -56.8 | ||||
| 2009-05-01T00:00 | 19131 | 63 | -57.0 | ||||
| 2009-05-01T00:00 | 19142 | 63 | -56.8 | ||||
| 2009-05-01T00:00 | 19146 | 63 | -56.9 | ||||
| 2009-05-01T00:00 | 19173 | 62 | -57.0 | ||||
| 2009-05-01T00:00 | 19186 | 62 | -56.8 | ||||
| 2009-05-01T00:00 | 19198 | 62 | -56.8 | ||||
| 2009-05-01T00:00 | 19224 | 62 | -56.9 | ||||
| 2009-05-01T00:00 | 19235 | 62 | -56.7 | ||||
| 2009-05-01T00:00 | 19239 | 62 | -56.7 | ||||
| 2009-05-01T00:00 | 19263 | 62 | -56.5 | 314 | 3 | ||
| 2009-05-01T00:00 | 19281 | 61 | -56.4 | ||||
| 2009-05-01T00:00 | 19288 | 61 | -56.4 | ||||
| 2009-05-01T00:00 | 19314 | 61 | -56.7 | ||||
| 2009-05-01T00:00 | 19326 | 61 | -56.5 | ||||
| 2009-05-01T00:00 | 19330 | 61 | -56.5 | ||||
| 2009-05-01T00:00 | 19350 | 61 | -56.7 | ||||
| 2009-05-01T00:00 | 19364 | 61 | -56.5 | ||||
| 2009-05-01T00:00 | 19368 | 61 | -56.4 | ||||
| 2009-05-01T00:00 | 19392 | 60 | -56.5 | ||||
| 2009-05-01T00:00 | 19406 | 60 | -56.5 | ||||
| 2009-05-01T00:00 | 19411 | 60 | -56.5 | ||||
| 2009-05-01T00:00 | 19439 | 60 | -56.8 | ||||
| 2009-05-01T00:00 | 19458 | 60 | -56.7 | ||||
| 2009-05-01T00:00 | 19464 | 60 | -56.6 | ||||
| 2009-05-01T00:00 | 19490 | 59 | -56.9 | ||||
| 2009-05-01T00:00 | 19500 | 59 | -56.9 | ||||
| 2009-05-01T00:00 | 19503 | 59 | -56.9 | ||||
| 2009-05-01T00:00 | 19526 | 59 | -57.1 | ||||
| 2009-05-01T00:00 | 19535 | 59 | -57.0 | ||||
| 2009-05-01T00:00 | 19544 | 59 | -56.9 | ||||
| 2009-05-01T00:00 | 19549 | 59 | -56.9 | 303 | 4 | ||
| 2009-05-01T00:00 | 19569 | 59 | -56.9 | ||||
| 2009-05-01T00:00 | 19580 | 59 | -56.7 | ||||
| 2009-05-01T00:00 | 19591 | 58 | -56.6 | ||||
| 2009-05-01T00:00 | 19618 | 58 | -56.8 | ||||
| 2009-05-01T00:00 | 19635 | 58 | -56.7 | ||||
| 2009-05-01T00:00 | 19640 | 58 | -56.7 | ||||
| 2009-05-01T00:00 | 19665 | 58 | -57.0 | ||||
| 2009-05-01T00:00 | 19677 | 58 | -57.0 | ||||
| 2009-05-01T00:00 | 19681 | 58 | -57.0 | ||||
| 2009-05-01T00:00 | 19706 | 57 | -57.1 | ||||
| 2009-05-01T00:00 | 19726 | 57 | -56.9 | ||||
| 2009-05-01T00:00 | 19732 | 57 | -56.9 | ||||
| 2009-05-01T00:00 | 19761 | 57 | -57.0 | ||||
| 2009-05-01T00:00 | 19776 | 57 | -56.9 | ||||
| 2009-05-01T00:00 | 19781 | 57 | -56.9 | ||||
| 2009-05-01T00:00 | 19803 | 57 | -57.2 | ||||
| 2009-05-01T00:00 | 19814 | 56 | -57.1 | ||||
| 2009-05-01T00:00 | 19818 | 56 | -57.0 | ||||
| 2009-05-01T00:00 | 19838 | 56 | -57.2 | ||||
| 2009-05-01T00:00 | 19846 | 56 | -57.1 | 320 | 4 | ||
| 2009-05-01T00:00 | 19850 | 56 | -57.1 | ||||
| 2009-05-01T00:00 | 19854 | 56 | -57.1 | ||||
| 2009-05-01T00:00 | 19878 | 56 | -57.3 | ||||
| 2009-05-01T00:00 | 19886 | 56 | -56.9 | ||||
| 2009-05-01T00:00 | 19893 | 56 | -56.9 | ||||
| 2009-05-01T00:00 | 19917 | 56 | -57.1 | ||||
| 2009-05-01T00:00 | 19930 | 55 | -56.8 | ||||
| 2009-05-01T00:00 | 19943 | 55 | -56.8 | ||||
| 2009-05-01T00:00 | 19967 | 55 | -56.6 | ||||
| 2009-05-01T00:00 | 19973 | 55 | -56.5 | ||||
| 2009-05-01T00:00 | 19975 | 55 | -56.3 | ||||
| 2009-05-01T00:00 | 19989 | 55 | -56.4 | ||||
| 2009-05-01T00:00 | 20000 | 55 | -56.2 | ||||
| 2009-05-01T00:00 | 20004 | 55 | -56.0 | ||||
| 2009-05-01T00:00 | 20027 | 55 | -56.2 | ||||
| 2009-05-01T00:00 | 20043 | 54 | -55.9 | ||||
| 2009-05-01T00:00 | 20049 | 54 | -55.9 | ||||
| 2009-05-01T00:00 | 20076 | 54 | -56.2 | ||||
| 2009-05-01T00:00 | 20092 | 54 | -55.8 | ||||
| 2009-05-01T00:00 | 20097 | 54 | -55.8 | ||||
| 2009-05-01T00:00 | 20111 | 54 | -56.0 | 347 | 3 | ||
| 2009-05-01T00:00 | 20120 | 54 | -56.1 | ||||
| 2009-05-01T00:00 | 20131 | 54 | -56.0 | ||||
| 2009-05-01T00:00 | 20134 | 54 | -56.0 | ||||
| 2009-05-01T00:00 | 20155 | 53 | -56.2 | ||||
| 2009-05-01T00:00 | 20171 | 53 | -56.2 | ||||
| 2009-05-01T00:00 | 20176 | 53 | -56.2 | ||||
| 2009-05-01T00:00 | 20199 | 53 | -56.5 | ||||
| 2009-05-01T00:00 | 20209 | 53 | -56.3 | ||||
| 2009-05-01T00:00 | 20213 | 53 | -56.2 | ||||
| 2009-05-01T00:00 | 20237 | 53 | -56.3 | ||||
| 2009-05-01T00:00 | 20257 | 53 | -56.0 | ||||
| 2009-05-01T00:00 | 20263 | 53 | -56.0 | ||||
| 2009-05-01T00:00 | 20292 | 52 | -56.3 | ||||
| 2009-05-01T00:00 | 20305 | 52 | -56.2 | ||||
| 2009-05-01T00:00 | 20310 | 52 | -56.2 | ||||
| 2009-05-01T00:00 | 20338 | 52 | -56.4 | ||||
| 2009-05-01T00:00 | 20348 | 52 | -56.3 | ||||
| 2009-05-01T00:00 | 20358 | 52 | -56.3 | ||||
| 2009-05-01T00:00 | 20381 | 52 | -56.6 | ||||
| 2009-05-01T00:00 | 20388 | 52 | -56.5 | ||||
| 2009-05-01T00:00 | 20392 | 52 | -56.5 | 35 | 2 | ||
| 2009-05-01T00:00 | 20396 | 52 | -56.5 | ||||
| 2009-05-01T00:00 | 20416 | 51 | -56.9 | ||||
| 2009-05-01T00:00 | 20425 | 51 | -56.9 | ||||
| 2009-05-01T00:00 | 20434 | 51 | -56.9 | ||||
| 2009-05-01T00:00 | 20454 | 51 | -57.3 | ||||
| 2009-05-01T00:00 | 20466 | 51 | -57.2 | ||||
| 2009-05-01T00:00 | 20469 | 51 | -57.3 | ||||
| 2009-05-01T00:00 | 20492 | 51 | -57.3 | ||||
| 2009-05-01T00:00 | 20510 | 51 | -57.0 | ||||
| 2009-05-01T00:00 | 20516 | 51 | -57.0 | ||||
| 2009-05-01T00:00 | 20542 | 50 | -57.3 | ||||
| 2009-05-01T00:00 | 20552 | 50 | -57.1 | ||||
| 2009-05-01T00:00 | 20556 | 50 | -57.2 | ||||
| 2009-05-01T00:00 | 20577 | 50 | -57.1 | ||||
| 2009-05-01T00:00 | 20583 | 50 | -57.0 | ||||
| 2009-05-01T00:00 | 20593 | 50 | -56.9 | ||||
| 2009-05-01T00:00 | 20598 | 50 | -56.9 | ||||
| 2009-05-01T00:00 | 20623 | 50 | -56.9 | ||||
| 2009-05-01T00:00 | 20636 | 50 | -56.8 | ||||
| 2009-05-01T00:00 | 20640 | 50 | -56.8 | ||||
| 2009-05-01T00:00 | 20664 | 49 | -56.9 | 48 | 0 | ||
| 2009-05-01T00:00 | 20679 | 49 | -56.6 | ||||
| 2009-05-01T00:00 | 20684 | 49 | -56.6 | ||||
| 2009-05-01T00:00 | 20709 | 49 | -56.6 | ||||
| 2009-05-01T00:00 | 20722 | 49 | -56.4 | ||||
| 2009-05-01T00:00 | 20726 | 49 | -56.4 | ||||
| 2009-05-01T00:00 | 20749 | 49 | -56.7 | ||||
| 2009-05-01T00:00 | 20763 | 49 | -56.6 | ||||
| 2009-05-01T00:00 | 20767 | 49 | -56.5 | ||||
| 2009-05-01T00:00 | 20792 | 48 | -56.8 | ||||
| 2009-05-01T00:00 | 20798 | 48 | -56.8 | ||||
| 2009-05-01T00:00 | 20805 | 48 | -56.7 | ||||
| 2009-05-01T00:00 | 20824 | 48 | -57.0 | ||||
| 2009-05-01T00:00 | 20833 | 48 | -56.9 | ||||
| 2009-05-01T00:00 | 20842 | 48 | -56.9 | ||||
| 2009-05-01T00:00 | 20868 | 48 | -57.2 | ||||
| 2009-05-01T00:00 | 20880 | 48 | -57.2 | ||||
| 2009-05-01T00:00 | 20892 | 48 | -57.2 | ||||
| 2009-05-01T00:00 | 20918 | 47 | -57.4 | ||||
| 2009-05-01T00:00 | 20931 | 47 | -57.3 | ||||
| 2009-05-01T00:00 | 20935 | 47 | -57.3 | ||||
| 2009-05-01T00:00 | 20940 | 47 | -57.3 | 294 | 2 | ||
| 2009-05-01T00:00 | 20958 | 47 | -57.5 | ||||
| 2009-05-01T00:00 | 20973 | 47 | -57.5 | ||||
| 2009-05-01T00:00 | 20978 | 47 | -57.5 | ||||
| 2009-05-01T00:00 | 21008 | 47 | -57.8 | ||||
| 2009-05-01T00:00 | 21032 | 47 | -57.7 | ||||
| 2009-05-01T00:00 | 21039 | 47 | -57.8 | ||||
| 2009-05-01T00:00 | 21069 | 46 | -58.0 | ||||
| 2009-05-01T00:00 | 21078 | 46 | -57.5 | ||||
| 2009-05-01T00:00 | 21081 | 46 | -57.6 | ||||
| 2009-05-01T00:00 | 21100 | 46 | -57.3 | ||||
| 2009-05-01T00:00 | 21115 | 46 | -56.9 | ||||
| 2009-05-01T00:00 | 21120 | 46 | -57.0 | ||||
| 2009-05-01T00:00 | 21145 | 46 | -56.5 | ||||
| 2009-05-01T00:00 | 21160 | 46 | -56.3 | ||||
| 2009-05-01T00:00 | 21165 | 46 | -56.3 | ||||
| 2009-05-01T00:00 | 21189 | 45 | -56.5 | ||||
| 2009-05-01T00:00 | 21203 | 45 | -56.4 | ||||
| 2009-05-01T00:00 | 21207 | 45 | -56.4 | ||||
| 2009-05-01T00:00 | 21231 | 45 | -56.3 | ||||
| 2009-05-01T00:00 | 21242 | 45 | -56.0 | 308 | 4 | ||
| 2009-05-01T00:00 | 21248 | 45 | -55.9 | ||||
| 2009-05-01T00:00 | 21253 | 45 | -55.9 | ||||
| 2009-05-01T00:00 | 21279 | 45 | -56.2 | ||||
| 2009-05-01T00:00 | 21294 | 45 | -56.1 | ||||
| 2009-05-01T00:00 | 21298 | 45 | -56.1 | ||||
| 2009-05-01T00:00 | 21323 | 44 | -56.4 | ||||
| 2009-05-01T00:00 | 21338 | 44 | -56.1 | ||||
| 2009-05-01T00:00 | 21343 | 44 | -56.1 | ||||
| 2009-05-01T00:00 | 21367 | 44 | -56.3 | ||||
| 2009-05-01T00:00 | 21379 | 44 | -56.1 | ||||
| 2009-05-01T00:00 | 21383 | 44 | -56.1 | ||||
| 2009-05-01T00:00 | 21410 | 44 | -56.2 | ||||
| 2009-05-01T00:00 | 21421 | 44 | -56.2 | ||||
| 2009-05-01T00:00 | 21426 | 44 | -56.2 | ||||
| 2009-05-01T00:00 | 21460 | 44 | -56.6 | ||||
| 2009-05-01T00:00 | 21473 | 43 | -56.5 | ||||
| 2009-05-01T00:00 | 21486 | 43 | -56.5 | ||||
| 2009-05-01T00:00 | 21514 | 43 | -57.0 | ||||
| 2009-05-01T00:00 | 21523 | 43 | -56.9 | ||||
| 2009-05-01T00:00 | 21531 | 43 | -56.9 | ||||
| 2009-05-01T00:00 | 21546 | 43 | -57.0 | 323 | 5 | ||
| 2009-05-01T00:00 | 21556 | 43 | -57.0 | ||||
| 2009-05-01T00:00 | 21569 | 43 | -56.9 | ||||
| 2009-05-01T00:00 | 21583 | 43 | -56.9 | ||||
| 2009-05-01T00:00 | 21611 | 43 | -57.2 | ||||
| 2009-05-01T00:00 | 21624 | 42 | -57.0 | ||||
| 2009-05-01T00:00 | 21628 | 42 | -57.0 | ||||
| 2009-05-01T00:00 | 21651 | 42 | -56.7 | ||||
| 2009-05-01T00:00 | 21667 | 42 | -56.5 | ||||
| 2009-05-01T00:00 | 21672 | 42 | -56.5 | ||||
| 2009-05-01T00:00 | 21706 | 42 | -56.5 | ||||
| 2009-05-01T00:00 | 21733 | 42 | -56.2 | ||||
| 2009-05-01T00:00 | 21742 | 42 | -56.1 | ||||
| 2009-05-01T00:00 | 21771 | 41 | -56.3 | ||||
| 2009-05-01T00:00 | 21773 | 41 | -56.2 | ||||
| 2009-05-01T00:00 | 21774 | 41 | -56.1 | ||||
| 2009-05-01T00:00 | 21789 | 41 | -56.3 | ||||
| 2009-05-01T00:00 | 21808 | 41 | -56.2 | ||||
| 2009-05-01T00:00 | 21814 | 41 | -56.2 | ||||
| 2009-05-01T00:00 | 21839 | 41 | -56.5 | ||||
| 2009-05-01T00:00 | 21849 | 41 | -56.4 | ||||
| 2009-05-01T00:00 | 21852 | 41 | -56.4 | 331 | 5 | ||
| 2009-05-01T00:00 | 21872 | 41 | -56.5 | ||||
| 2009-05-01T00:00 | 21887 | 41 | -56.4 | ||||
| 2009-05-01T00:00 | 21891 | 41 | -56.4 | ||||
| 2009-05-01T00:00 | 21921 | 40 | -56.3 | ||||
| 2009-05-01T00:00 | 21943 | 40 | -56.1 | ||||
| 2009-05-01T00:00 | 21950 | 40 | -56.1 | ||||
| 2009-05-01T00:00 | 21978 | 40 | -56.3 | ||||
| 2009-05-01T00:00 | 21986 | 40 | -56.2 | ||||
| 2009-05-01T00:00 | 21989 | 40 | -56.2 | ||||
| 2009-05-01T00:00 | 22007 | 40 | -56.3 | ||||
| 2009-05-01T00:00 | 22020 | 40 | -56.1 | ||||
| 2009-05-01T00:00 | 22025 | 40 | -56.0 | ||||
| 2009-05-01T00:00 | 22047 | 40 | -55.9 | ||||
| 2009-05-01T00:00 | 22058 | 40 | -55.8 | ||||
| 2009-05-01T00:00 | 22062 | 40 | -55.7 | ||||
| 2009-05-01T00:00 | 22085 | 39 | -55.8 | ||||
| 2009-05-01T00:00 | 22101 | 39 | -55.6 | ||||
| 2009-05-01T00:00 | 22106 | 39 | -55.6 | ||||
| 2009-05-01T00:00 | 22130 | 39 | -55.8 | ||||
| 2009-05-01T00:00 | 22133 | 39 | -55.8 | 335 | 5 | ||
| 2009-05-01T00:00 | 22141 | 39 | -55.6 | ||||
| 2009-05-01T00:00 | 22144 | 39 | -55.6 | ||||
| 2009-05-01T00:00 | 22169 | 39 | -55.8 | ||||
| 2009-05-01T00:00 | 22189 | 39 | -55.5 | ||||
| 2009-05-01T00:00 | 22196 | 39 | -55.6 | ||||
| 2009-05-01T00:00 | 22226 | 39 | -55.8 | ||||
| 2009-05-01T00:00 | 22241 | 38 | -55.8 | ||||
| 2009-05-01T00:00 | 22247 | 38 | -55.7 | ||||
| 2009-05-01T00:00 | 22265 | 38 | -56.0 | ||||
| 2009-05-01T00:00 | 22269 | 38 | -55.8 | ||||
| 2009-05-01T00:00 | 22271 | 38 | -55.7 | ||||
| 2009-05-01T00:00 | 22288 | 38 | -56.0 | ||||
| 2009-05-01T00:00 | 22308 | 38 | -55.8 | ||||
| 2009-05-01T00:00 | 22314 | 38 | -55.8 | ||||
| 2009-05-01T00:00 | 22342 | 38 | -56.1 | ||||
| 2009-05-01T00:00 | 22355 | 38 | -56.0 | ||||
| 2009-05-01T00:00 | 22359 | 38 | -55.9 | ||||
| 2009-05-01T00:00 | 22382 | 38 | -55.8 | ||||
| 2009-05-01T00:00 | 22396 | 38 | -55.6 | ||||
| 2009-05-01T00:00 | 22401 | 38 | -55.6 | ||||
| 2009-05-01T00:00 | 22415 | 37 | -55.8 | 342 | 6 | ||
| 2009-05-01T00:00 | 22424 | 37 | -55.9 | ||||
| 2009-05-01T00:00 | 22438 | 37 | -55.9 | ||||
| 2009-05-01T00:00 | 22443 | 37 | -55.9 | ||||
| 2009-05-01T00:00 | 22464 | 37 | -56.2 | ||||
| 2009-05-01T00:00 | 22475 | 37 | -56.1 | ||||
| 2009-05-01T00:00 | 22479 | 37 | -56.1 | ||||
| 2009-05-01T00:00 | 22503 | 37 | -56.2 | ||||
| 2009-05-01T00:00 | 22523 | 37 | -56.0 | ||||
| 2009-05-01T00:00 | 22530 | 37 | -56.0 | ||||
| 2009-05-01T00:00 | 22558 | 37 | -56.2 | ||||
| 2009-05-01T00:00 | 22570 | 37 | -56.1 | ||||
| 2009-05-01T00:00 | 22574 | 37 | -56.0 | ||||
| 2009-05-01T00:00 | 22605 | 36 | -56.2 | ||||
| 2009-05-01T00:00 | 22632 | 36 | -55.8 | ||||
| 2009-05-01T00:00 | 22642 | 36 | -55.8 | ||||
| 2009-05-01T00:00 | 22674 | 36 | -56.1 | ||||
| 2009-05-01T00:00 | 22682 | 36 | -56.0 | ||||
| 2009-05-01T00:00 | 22684 | 36 | -55.9 | ||||
| 2009-05-01T00:00 | 22699 | 36 | -56.1 | ||||
| 2009-05-01T00:00 | 22710 | 36 | -56.1 | ||||
| 2009-05-01T00:00 | 22713 | 36 | -56.1 | 352 | 7 | ||
| 2009-05-01T00:00 | 22737 | 36 | -56.0 | ||||
| 2009-05-01T00:00 | 22757 | 36 | -55.8 | ||||
| 2009-05-01T00:00 | 22763 | 35 | -55.8 | ||||
| 2009-05-01T00:00 | 22792 | 35 | -56.1 | ||||
| 2009-05-01T00:00 | 22806 | 35 | -56.0 | ||||
| 2009-05-01T00:00 | 22811 | 35 | -56.0 | ||||
| 2009-05-01T00:00 | 22835 | 35 | -56.2 | ||||
| 2009-05-01T00:00 | 22850 | 35 | -56.1 | ||||
| 2009-05-01T00:00 | 22855 | 35 | -56.0 | ||||
| 2009-05-01T00:00 | 22880 | 35 | -56.1 | ||||
| 2009-05-01T00:00 | 22895 | 35 | -56.1 | ||||
| 2009-05-01T00:00 | 22901 | 35 | -56.1 | ||||
| 2009-05-01T00:00 | 22930 | 35 | -56.4 | ||||
| 2009-05-01T00:00 | 22953 | 34 | -56.4 | ||||
| 2009-05-01T00:00 | 22960 | 34 | -56.4 | ||||
| 2009-05-01T00:00 | 22991 | 34 | -56.7 | ||||
| 2009-05-01T00:00 | 23004 | 34 | -56.7 | ||||
| 2009-05-01T00:00 | 23008 | 34 | -56.7 | ||||
| 2009-05-01T00:00 | 23029 | 34 | -56.8 | ||||
| 2009-05-01T00:00 | 23033 | 34 | -56.8 | 1 | 7 | ||
| 2009-05-01T00:00 | 23042 | 34 | -56.7 | ||||
| 2009-05-01T00:00 | 23046 | 34 | -56.7 | ||||
| 2009-05-01T00:00 | 23068 | 34 | -57.0 | ||||
| 2009-05-01T00:00 | 23075 | 34 | -57.0 | ||||
| 2009-05-01T00:00 | 23078 | 34 | -57.0 | ||||
| 2009-05-01T00:00 | 23099 | 34 | -56.9 | ||||
| 2009-05-01T00:00 | 23108 | 34 | -56.8 | ||||
| 2009-05-01T00:00 | 23112 | 34 | -56.7 | ||||
| 2009-05-01T00:00 | 23145 | 33 | -56.8 | ||||
| 2009-05-01T00:00 | 23159 | 33 | -56.6 | ||||
| 2009-05-01T00:00 | 23167 | 33 | -56.6 | ||||
| 2009-05-01T00:00 | 23205 | 33 | -56.6 | ||||
| 2009-05-01T00:00 | 23213 | 33 | -56.4 | ||||
| 2009-05-01T00:00 | 23217 | 33 | -56.2 | ||||
| 2009-05-01T00:00 | 23243 | 33 | -56.4 | ||||
| 2009-05-01T00:00 | 23254 | 33 | -56.3 | ||||
| 2009-05-01T00:00 | 23259 | 33 | -56.3 | ||||
| 2009-05-01T00:00 | 23287 | 33 | -56.3 | ||||
| 2009-05-01T00:00 | 23294 | 33 | -56.1 | ||||
| 2009-05-01T00:00 | 23298 | 33 | -56.2 | ||||
| 2009-05-01T00:00 | 23310 | 33 | -56.3 | 2 | 7 | ||
| 2009-05-01T00:00 | 23322 | 32 | -56.4 | ||||
| 2009-05-01T00:00 | 23332 | 32 | -56.3 | ||||
| 2009-05-01T00:00 | 23336 | 32 | -56.2 | ||||
| 2009-05-01T00:00 | 23367 | 32 | -56.4 | ||||
| 2009-05-01T00:00 | 23379 | 32 | -56.3 | ||||
| 2009-05-01T00:00 | 23385 | 32 | -56.2 | ||||
| 2009-05-01T00:00 | 23417 | 32 | -56.1 | ||||
| 2009-05-01T00:00 | 23425 | 32 | -56.0 | ||||
| 2009-05-01T00:00 | 23429 | 32 | -55.9 | ||||
| 2009-05-01T00:00 | 23457 | 32 | -56.1 | ||||
| 2009-05-01T00:00 | 23469 | 32 | -56.0 | ||||
| 2009-05-01T00:00 | 23475 | 32 | -56.0 | ||||
| 2009-05-01T00:00 | 23508 | 32 | -56.2 | ||||
| 2009-05-01T00:00 | 23517 | 31 | -56.1 | ||||
| 2009-05-01T00:00 | 23521 | 31 | -56.1 | ||||
| 2009-05-01T00:00 | 23549 | 31 | -56.4 | ||||
| 2009-05-01T00:00 | 23559 | 31 | -56.2 | ||||
| 2009-05-01T00:00 | 23564 | 31 | -56.2 | ||||
| 2009-05-01T00:00 | 23590 | 31 | -56.3 | ||||
| 2009-05-01T00:00 | 23606 | 31 | -56.2 | ||||
| 2009-05-01T00:00 | 23611 | 31 | -56.2 | 10 | 6 | ||
| 2009-05-01T00:00 | 23637 | 31 | -56.5 | ||||
| 2009-05-01T00:00 | 23652 | 31 | -56.5 | ||||
| 2009-05-01T00:00 | 23657 | 31 | -56.5 | ||||
| 2009-05-01T00:00 | 23683 | 31 | -56.7 | ||||
| 2009-05-01T00:00 | 23701 | 31 | -56.5 | ||||
| 2009-05-01T00:00 | 23706 | 31 | -56.5 | ||||
| 2009-05-01T00:00 | 23738 | 30 | -56.8 | ||||
| 2009-05-01T00:00 | 23760 | 30 | -56.8 | ||||
| 2009-05-01T00:00 | 23767 | 30 | -56.8 | ||||
| 2009-05-01T00:00 | 23795 | 30 | -56.8 | ||||
| 2009-05-01T00:00 | 23804 | 30 | -56.8 | ||||
| 2009-05-01T00:00 | 23807 | 30 | -56.8 | ||||
| 2009-05-01T00:00 | 23825 | 30 | -57.0 | ||||
| 2009-05-01T00:00 | 23838 | 30 | -56.8 | ||||
| 2009-05-01T00:00 | 23843 | 30 | -56.8 | ||||
| 2009-05-01T00:00 | 23864 | 30 | -57.0 | ||||
| 2009-05-01T00:00 | 23876 | 30 | -56.9 | ||||
| 2009-05-01T00:00 | 23880 | 30 | -56.8 | ||||
| 2009-05-01T00:00 | 23902 | 30 | -56.8 | ||||
| 2009-05-01T00:00 | 23906 | 30 | -56.8 | 12 | 4 | ||
| 2009-05-01T00:00 | 23916 | 30 | -56.7 | ||||
| 2009-05-01T00:00 | 23921 | 30 | -56.7 | ||||
| 2009-05-01T00:00 | 23945 | 29 | -56.8 | ||||
| 2009-05-01T00:00 | 23959 | 29 | -56.4 | ||||
| 2009-05-01T00:00 | 23964 | 29 | -56.2 | ||||
| 2009-05-01T00:00 | 23995 | 29 | -56.4 | ||||
| 2009-05-01T00:00 | 24019 | 29 | -56.3 | ||||
| 2009-05-01T00:00 | 24028 | 29 | -56.4 | ||||
| 2009-05-01T00:00 | 24063 | 29 | -56.7 | ||||
| 2009-05-01T00:00 | 24078 | 29 | -56.6 | ||||
| 2009-05-01T00:00 | 24083 | 29 | -56.6 | ||||
| 2009-05-01T00:00 | 24109 | 29 | -56.4 | ||||
| 2009-05-01T00:00 | 24124 | 29 | -56.0 | ||||
| 2009-05-01T00:00 | 24129 | 29 | -55.9 | ||||
| 2009-05-01T00:00 | 24150 | 28 | -56.0 | ||||
| 2009-05-01T00:00 | 24159 | 28 | -56.0 | ||||
| 2009-05-01T00:00 | 24161 | 28 | -55.8 | ||||
| 2009-05-01T00:00 | 24182 | 28 | -55.8 | ||||
| 2009-05-01T00:00 | 24200 | 28 | -55.3 | ||||
| 2009-05-01T00:00 | 24206 | 28 | -55.2 | ||||
| 2009-05-01T00:00 | 24222 | 28 | -55.1 | 333 | 3 | ||
| 2009-05-01T00:00 | 24233 | 28 | -55.1 | ||||
| 2009-05-01T00:00 | 24246 | 28 | -55.0 | ||||
| 2009-05-01T00:00 | 24251 | 28 | -55.0 | ||||
| 2009-05-01T00:00 | 24279 | 28 | -54.7 | ||||
| 2009-05-01T00:00 | 24300 | 28 | -54.5 | ||||
| 2009-05-01T00:00 | 24307 | 28 | -54.5 | ||||
| 2009-05-01T00:00 | 24332 | 28 | -54.7 | ||||
| 2009-05-01T00:00 | 24337 | 28 | -54.5 | ||||
| 2009-05-01T00:00 | 24338 | 28 | -54.6 | ||||
| 2009-05-01T00:00 | 24353 | 28 | -54.7 | ||||
| 2009-05-01T00:00 | 24369 | 28 | -54.6 | ||||
| 2009-05-01T00:00 | 24374 | 28 | -54.6 | ||||
| 2009-05-01T00:00 | 24401 | 27 | -54.9 | ||||
| 2009-05-01T00:00 | 24419 | 27 | -54.8 | ||||
| 2009-05-01T00:00 | 24425 | 27 | -54.9 | ||||
| 2009-05-01T00:00 | 24456 | 27 | -54.8 | ||||
| 2009-05-01T00:00 | 24474 | 27 | -54.5 | ||||
| 2009-05-01T00:00 | 24481 | 27 | -54.5 | ||||
| 2009-05-01T00:00 | 24508 | 27 | -54.8 | ||||
| 2009-05-01T00:00 | 24519 | 27 | -54.6 | ||||
| 2009-05-01T00:00 | 24523 | 27 | -54.7 | 312 | 4 | ||
| 2009-05-01T00:00 | 24549 | 27 | -55.0 | ||||
| 2009-05-01T00:00 | 24562 | 27 | -54.8 | ||||
| 2009-05-01T00:00 | 24575 | 27 | -54.9 | ||||
| 2009-05-01T00:00 | 24599 | 27 | -55.2 | ||||
| 2009-05-01T00:00 | 24603 | 27 | -55.1 | ||||
| 2009-05-01T00:00 | 24606 | 27 | -55.2 | ||||
| 2009-05-01T00:00 | 24623 | 26 | -55.5 | ||||
| 2009-05-01T00:00 | 24634 | 26 | -55.3 | ||||
| 2009-05-01T00:00 | 24646 | 26 | -55.4 | ||||
| 2009-05-01T00:00 | 24673 | 26 | -55.7 | ||||
| 2009-05-01T00:00 | 24683 | 26 | -55.3 | ||||
| 2009-05-01T00:00 | 24688 | 26 | -55.3 | ||||
| 2009-05-01T00:00 | 24719 | 26 | -55.6 | ||||
| 2009-05-01T00:00 | 24728 | 26 | -55.2 | ||||
| 2009-05-01T00:00 | 24733 | 26 | -55.0 | ||||
| 2009-05-01T00:00 | 24765 | 26 | -54.8 | ||||
| 2009-05-01T00:00 | 24776 | 26 | -54.4 | ||||
| 2009-05-01T00:00 | 24782 | 26 | -54.3 | ||||
| 2009-05-01T00:00 | 24812 | 26 | -54.5 | ||||
| 2009-05-01T00:00 | 24823 | 26 | -54.5 | 300 | 4 | ||
| 2009-05-01T00:00 | 24829 | 26 | -54.4 | ||||
| 2009-05-01T00:00 | 24835 | 26 | -54.3 | ||||
| 2009-05-01T00:00 | 24861 | 26 | -54.3 | ||||
| 2009-05-01T00:00 | 24873 | 25 | -54.1 | ||||
| 2009-05-01T00:00 | 24878 | 25 | -54.0 | ||||
| 2009-05-01T00:00 | 24900 | 25 | -54.0 | ||||
| 2009-05-01T00:00 | 24914 | 25 | -54.0 | ||||
| 2009-05-01T00:00 | 24919 | 25 | -54.0 | ||||
| 2009-05-01T00:00 | 24943 | 25 | -54.1 | ||||
| 2009-05-01T00:00 | 24957 | 25 | -53.9 | ||||
| 2009-05-01T00:00 | 24962 | 25 | -54.0 | ||||
| 2009-05-01T00:00 | 24984 | 25 | -54.0 | ||||
| 2009-05-01T00:00 | 24995 | 25 | -53.9 | ||||
| 2009-05-01T00:00 | 24999 | 25 | -53.9 | ||||
| 2009-05-01T00:00 | 25019 | 25 | -54.1 | ||||
| 2009-05-01T00:00 | 25032 | 25 | -54.1 | ||||
| 2009-05-01T00:00 | 25036 | 25 | -54.1 | ||||
| 2009-05-01T00:00 | 25063 | 25 | -54.4 | ||||
| 2009-05-01T00:00 | 25078 | 25 | -54.3 | ||||
| 2009-05-01T00:00 | 25092 | 25 | -54.3 | ||||
| 2009-05-01T00:00 | 25115 | 25 | -54.5 | 287 | 5 | ||
| 2009-05-01T00:00 | 25121 | 24 | -54.5 | ||||
| 2009-05-01T00:00 | 25128 | 24 | -54.4 | ||||
| 2009-05-01T00:00 | 25135 | 24 | -54.3 | ||||
| 2009-05-01T00:00 | 25157 | 24 | -54.5 | ||||
| 2009-05-01T00:00 | 25169 | 24 | -54.1 | ||||
| 2009-05-01T00:00 | 25175 | 24 | -54.1 | ||||
| 2009-05-01T00:00 | 25205 | 24 | -54.1 | ||||
| 2009-05-01T00:00 | 25213 | 24 | -54.0 | ||||
| 2009-05-01T00:00 | 25216 | 24 | -54.1 | ||||
| 2009-05-01T00:00 | 25237 | 24 | -54.4 | ||||
| 2009-05-01T00:00 | 25252 | 24 | -54.3 | ||||
| 2009-05-01T00:00 | 25257 | 24 | -54.3 | ||||
| 2009-05-01T00:00 | 25284 | 24 | -54.7 | ||||
| 2009-05-01T00:00 | 25301 | 24 | -54.6 | ||||
| 2009-05-01T00:00 | 25307 | 24 | -54.7 | ||||
| 2009-05-01T00:00 | 25336 | 24 | -55.0 | ||||
| 2009-05-01T00:00 | 25354 | 24 | -54.8 | ||||
| 2009-05-01T00:00 | 25360 | 24 | -54.8 | ||||
| 2009-05-01T00:00 | 25387 | 23 | -54.9 | ||||
| 2009-05-01T00:00 | 25400 | 23 | -54.7 | ||||
| 2009-05-01T00:00 | 25405 | 23 | -54.8 | ||||
| 2009-05-01T00:00 | 25414 | 23 | -54.9 | 287 | 7 | ||
| 2009-05-01T00:00 | 25428 | 23 | -55.1 | ||||
| 2009-05-01T00:00 | 25443 | 23 | -55.0 | ||||
| 2009-05-01T00:00 | 25448 | 23 | -55.0 | ||||
| 2009-05-01T00:00 | 25472 | 23 | -55.1 | ||||
| 2009-05-01T00:00 | 25487 | 23 | -55.0 | ||||
| 2009-05-01T00:00 | 25492 | 23 | -55.1 | ||||
| 2009-05-01T00:00 | 25521 | 23 | -55.4 | ||||
| 2009-05-01T00:00 | 25544 | 23 | -55.2 | ||||
| 2009-05-01T00:00 | 25551 | 23 | -55.2 | ||||
| 2009-05-01T00:00 | 25582 | 23 | -55.3 | ||||
| 2009-05-01T00:00 | 25591 | 23 | -55.3 | ||||
| 2009-05-01T00:00 | 25600 | 23 | -55.2 | ||||
| 2009-05-01T00:00 | 25622 | 23 | -55.2 | ||||
| 2009-05-01T00:00 | 25632 | 23 | -54.9 | ||||
| 2009-05-01T00:00 | 25641 | 23 | -55.1 | ||||
| 2009-05-01T00:00 | 25664 | 22 | -54.8 | ||||
| 2009-05-01T00:00 | 25673 | 22 | -54.0 | ||||
| 2009-05-01T00:00 | 25677 | 22 | -54.0 | ||||
| 2009-05-01T00:00 | 25711 | 22 | -53.8 | ||||
| 2009-05-01T00:00 | 25727 | 22 | -53.1 | ||||
| 2009-05-01T00:00 | 25735 | 22 | -53.2 | 294 | 9 | ||
| 2009-05-01T00:00 | 25764 | 22 | -53.1 | ||||
| 2009-05-01T00:00 | 25773 | 22 | -52.9 | ||||
| 2009-05-01T00:00 | 25776 | 22 | -52.9 | ||||
| 2009-05-01T00:00 | 25801 | 22 | -52.9 | ||||
| 2009-05-01T00:00 | 25826 | 22 | -52.6 | ||||
| 2009-05-01T00:00 | 25834 | 22 | -52.5 | ||||
| 2009-05-01T00:00 | 25864 | 22 | -52.5 | ||||
| 2009-05-01T00:00 | 25871 | 22 | -52.2 | ||||
| 2009-05-01T00:00 | 25874 | 22 | -52.2 | ||||
| 2009-05-01T00:00 | 25900 | 22 | -52.1 | ||||
| 2009-05-01T00:00 | 25927 | 22 | -52.1 | ||||
| 2009-05-01T00:00 | 25936 | 22 | -52.1 | ||||
| 2009-05-01T00:00 | 25970 | 21 | -52.3 | ||||
| 2009-05-01T00:00 | 25976 | 21 | -52.1 | ||||
| 2009-05-01T00:00 | 25983 | 21 | -52.1 | ||||
| 2009-05-01T00:00 | 26008 | 21 | -51.9 | ||||
| 2009-05-01T00:00 | 26022 | 21 | -51.8 | ||||
| 2009-05-01T00:00 | 26029 | 21 | -51.8 | ||||
| 2009-05-01T00:00 | 26061 | 21 | -52.1 |
Only the first 2000 rows were shown. To view the complete dataset, download it as tab-delimited text. You can still view the full matrix in your browser, but be aware that this may crash the browser due to the huge size.
